<?xml version="1.0" encoding="UTF-8" standalone="no" ?>
<gpx xmlns="http://www.topografix.com/GPX/1/1" xmlns:xsi="http://www.w3.org/2001/XMLSchema-instance" xsi:schemaLocation="http://www.topografix.com/GPX/1/1 http://www.topografix.com/GPX/1/1/gpx.xsd" version="1.1" creator="VisuGPX - https://www.visugpx.com">
  <metadata>
    <name>Les Gillardes</name>
    <desc><![CDATA[Rando dans le Dévoluy (deux départements les Hautes-Alpes et l'Isère)
L'exsurgence des Gillardes est une force de la nature ; après avoir été captives dans les chorums du Dévoluy, les eaux se libèrent avec une vitalité étonnante : comment tant de pression contenue ? comment toutes ces eaux vont-elle passer dans l'étroit défilé de l'Infernet ?]]></desc>
  </metadata>
  <trk>
    <name><![CDATA[des Gillardes au Monestier d'Ambel]]></name>
    <desc><![CDATA[Départ du parking des Gillardes.
Après les exsurgences, le sentier suit la Souloise jusqu'au défilé de l'Infernet ; sur le 3° pont se diriger vers Monsetier d'Ambel ; puis le pont du Mas ; la route remonte après le Mas et un grand virage jusqu'à un sentier qui indique bien Monestier d'Ambel ; belle place pour pique-niquer devant l'église ; retour par La tardivière et l'Infernet.
  ]]></desc>
    <trkseg>
      <trkpt lat="44.75703" lon="5.88752">
        <ele>878</ele>
        <time>2018-06-06T06:59:00.000Z</time>
      </trkpt>
      <trkpt lat="44.7572" lon="5.88725">
        <ele>886</ele>
        <time>2018-06-06T06:59:29.000Z</time>
      </trkpt>
      <trkpt lat="44.7572" lon="5.88725">
        <ele>885.79998779297</ele>
        <time>2018-06-06T06:59:30.000Z</time>
      </trkpt>
      <trkpt lat="44.75806" lon="5.88604">
        <ele>880</ele>
        <time>2018-06-06T07:03:53.000Z</time>
      </trkpt>
      <trkpt lat="44.75825" lon="5.88601">
        <ele>879.40002441406</ele>
        <time>2018-06-06T07:04:05.000Z</time>
      </trkpt>
      <trkpt lat="44.75833" lon="5.88603">
        <ele>879.20001220703</ele>
        <time>2018-06-06T07:04:18.000Z</time>
      </trkpt>
      <trkpt lat="44.75844" lon="5.886">
        <ele>879.20001220703</ele>
        <time>2018-06-06T07:04:27.000Z</time>
      </trkpt>
      <trkpt lat="44.75858" lon="5.88602">
        <ele>879.40002441406</ele>
        <time>2018-06-06T07:04:42.000Z</time>
      </trkpt>
      <trkpt lat="44.75865" lon="5.88616">
        <ele>879.20001220703</ele>
        <time>2018-06-06T07:05:01.000Z</time>
      </trkpt>
      <trkpt lat="44.75876" lon="5.88624">
        <ele>879.40002441406</ele>
        <time>2018-06-06T07:05:16.000Z</time>
      </trkpt>
      <trkpt lat="44.75885" lon="5.88626">
        <ele>880</ele>
        <time>2018-06-06T07:05:22.000Z</time>
      </trkpt>
      <trkpt lat="44.75897" lon="5.88635">
        <ele>879.79998779297</ele>
        <time>2018-06-06T07:05:48.000Z</time>
      </trkpt>
      <trkpt lat="44.75902" lon="5.88636">
        <ele>880</ele>
        <time>2018-06-06T07:05:53.000Z</time>
      </trkpt>
      <trkpt lat="44.75909" lon="5.88637">
        <ele>880.20001220703</ele>
        <time>2018-06-06T07:05:58.000Z</time>
      </trkpt>
      <trkpt lat="44.75929" lon="5.88638">
        <ele>879.40002441406</ele>
        <time>2018-06-06T07:06:13.000Z</time>
      </trkpt>
      <trkpt lat="44.75938" lon="5.88641">
        <ele>879</ele>
        <time>2018-06-06T07:06:26.000Z</time>
      </trkpt>
      <trkpt lat="44.75942" lon="5.88643">
        <ele>878.79998779297</ele>
        <time>2018-06-06T07:06:33.000Z</time>
      </trkpt>
      <trkpt lat="44.75953" lon="5.88659">
        <ele>877.79998779297</ele>
        <time>2018-06-06T07:06:47.000Z</time>
      </trkpt>
      <trkpt lat="44.75957" lon="5.88667">
        <ele>878</ele>
        <time>2018-06-06T07:06:55.000Z</time>
      </trkpt>
      <trkpt lat="44.75957" lon="5.88675">
        <ele>877.79998779297</ele>
        <time>2018-06-06T07:07:03.000Z</time>
      </trkpt>
      <trkpt lat="44.75959" lon="5.88681">
        <ele>877.40002441406</ele>
        <time>2018-06-06T07:07:09.000Z</time>
      </trkpt>
      <trkpt lat="44.75948" lon="5.88685">
        <ele>874.79998779297</ele>
        <time>2018-06-06T07:07:34.000Z</time>
      </trkpt>
      <trkpt lat="44.75946" lon="5.88707">
        <ele>874</ele>
        <time>2018-06-06T07:07:49.000Z</time>
      </trkpt>
      <trkpt lat="44.75966" lon="5.88715">
        <ele>872.59997558594</ele>
        <time>2018-06-06T07:08:13.000Z</time>
      </trkpt>
      <trkpt lat="44.75963" lon="5.88716">
        <ele>872.59997558594</ele>
        <time>2018-06-06T07:08:15.000Z</time>
      </trkpt>
      <trkpt lat="44.7597" lon="5.88711">
        <ele>873</ele>
        <time>2018-06-06T07:08:47.000Z</time>
      </trkpt>
      <trkpt lat="44.75971" lon="5.88714">
        <ele>872.59997558594</ele>
        <time>2018-06-06T07:08:52.000Z</time>
      </trkpt>
      <trkpt lat="44.75987" lon="5.88713">
        <ele>870</ele>
        <time>2018-06-06T07:09:17.000Z</time>
      </trkpt>
      <trkpt lat="44.75974" lon="5.88708">
        <ele>868.20001220703</ele>
        <time>2018-06-06T07:09:24.000Z</time>
      </trkpt>
      <trkpt lat="44.75969" lon="5.88707">
        <ele>867.40002441406</ele>
        <time>2018-06-06T07:09:29.000Z</time>
      </trkpt>
      <trkpt lat="44.75961" lon="5.88705">
        <ele>866.79998779297</ele>
        <time>2018-06-06T07:09:48.000Z</time>
      </trkpt>
      <trkpt lat="44.75961" lon="5.88712">
        <ele>867.79998779297</ele>
        <time>2018-06-06T07:10:24.000Z</time>
      </trkpt>
      <trkpt lat="44.75971" lon="5.88712">
        <ele>869</ele>
        <time>2018-06-06T07:10:57.000Z</time>
      </trkpt>
      <trkpt lat="44.75965" lon="5.88708">
        <ele>870.40002441406</ele>
        <time>2018-06-06T07:11:27.000Z</time>
      </trkpt>
      <trkpt lat="44.75973" lon="5.88706">
        <ele>871.40002441406</ele>
        <time>2018-06-06T07:11:40.000Z</time>
      </trkpt>
      <trkpt lat="44.75964" lon="5.88709">
        <ele>871.40002441406</ele>
        <time>2018-06-06T07:11:48.000Z</time>
      </trkpt>
      <trkpt lat="44.75961" lon="5.88709">
        <ele>873</ele>
        <time>2018-06-06T07:12:10.000Z</time>
      </trkpt>
      <trkpt lat="44.75954" lon="5.88693">
        <ele>872.40002441406</ele>
        <time>2018-06-06T07:12:29.000Z</time>
      </trkpt>
      <trkpt lat="44.7596" lon="5.88675">
        <ele>873.20001220703</ele>
        <time>2018-06-06T07:12:59.000Z</time>
      </trkpt>
      <trkpt lat="44.75972" lon="5.88675">
        <ele>873.20001220703</ele>
        <time>2018-06-06T07:13:28.000Z</time>
      </trkpt>
      <trkpt lat="44.7599" lon="5.88668">
        <ele>874.59997558594</ele>
        <time>2018-06-06T07:13:57.000Z</time>
      </trkpt>
      <trkpt lat="44.75995" lon="5.88671">
        <ele>874.59997558594</ele>
        <time>2018-06-06T07:14:25.000Z</time>
      </trkpt>
      <trkpt lat="44.76001" lon="5.88669">
        <ele>874.40002441406</ele>
        <time>2018-06-06T07:14:33.000Z</time>
      </trkpt>
      <trkpt lat="44.76005" lon="5.88669">
        <ele>874.20001220703</ele>
        <time>2018-06-06T07:14:37.000Z</time>
      </trkpt>
      <trkpt lat="44.76005" lon="5.88666">
        <ele>873.40002441406</ele>
        <time>2018-06-06T07:14:50.000Z</time>
      </trkpt>
      <trkpt lat="44.75999" lon="5.88678">
        <ele>873.20001220703</ele>
        <time>2018-06-06T07:15:11.000Z</time>
      </trkpt>
      <trkpt lat="44.76002" lon="5.88689">
        <ele>873.40002441406</ele>
        <time>2018-06-06T07:15:22.000Z</time>
      </trkpt>
      <trkpt lat="44.76" lon="5.8869">
        <ele>873</ele>
        <time>2018-06-06T07:15:24.000Z</time>
      </trkpt>
      <trkpt lat="44.75995" lon="5.88698">
        <ele>871.40002441406</ele>
        <time>2018-06-06T07:15:44.000Z</time>
      </trkpt>
      <trkpt lat="44.76" lon="5.88714">
        <ele>870.79998779297</ele>
        <time>2018-06-06T07:16:04.000Z</time>
      </trkpt>
      <trkpt lat="44.76008" lon="5.88738">
        <ele>869.20001220703</ele>
        <time>2018-06-06T07:16:29.000Z</time>
      </trkpt>
      <trkpt lat="44.76016" lon="5.88762">
        <ele>869.20001220703</ele>
        <time>2018-06-06T07:16:52.000Z</time>
      </trkpt>
      <trkpt lat="44.76024" lon="5.88787">
        <ele>869.59997558594</ele>
        <time>2018-06-06T07:17:12.000Z</time>
      </trkpt>
      <trkpt lat="44.76034" lon="5.88809">
        <ele>870.20001220703</ele>
        <time>2018-06-06T07:17:34.000Z</time>
      </trkpt>
      <trkpt lat="44.76037" lon="5.8883">
        <ele>870.79998779297</ele>
        <time>2018-06-06T07:17:48.000Z</time>
      </trkpt>
      <trkpt lat="44.76039" lon="5.88842">
        <ele>871.40002441406</ele>
        <time>2018-06-06T07:17:55.000Z</time>
      </trkpt>
      <trkpt lat="44.76042" lon="5.88867">
        <ele>872.59997558594</ele>
        <time>2018-06-06T07:18:14.000Z</time>
      </trkpt>
      <trkpt lat="44.76041" lon="5.88882">
        <ele>874.40002441406</ele>
        <time>2018-06-06T07:18:37.000Z</time>
      </trkpt>
      <trkpt lat="44.76059" lon="5.88904">
        <ele>872.40002441406</ele>
        <time>2018-06-06T07:19:02.000Z</time>
      </trkpt>
      <trkpt lat="44.76072" lon="5.88944">
        <ele>872</ele>
        <time>2018-06-06T07:19:28.000Z</time>
      </trkpt>
      <trkpt lat="44.76068" lon="5.8898">
        <ele>871</ele>
        <time>2018-06-06T07:19:55.000Z</time>
      </trkpt>
      <trkpt lat="44.76069" lon="5.88998">
        <ele>868.40002441406</ele>
        <time>2018-06-06T07:20:27.000Z</time>
      </trkpt>
      <trkpt lat="44.76073" lon="5.88994">
        <ele>868</ele>
        <time>2018-06-06T07:20:46.000Z</time>
      </trkpt>
      <trkpt lat="44.7607" lon="5.88999">
        <ele>867</ele>
        <time>2018-06-06T07:21:14.000Z</time>
      </trkpt>
      <trkpt lat="44.76069" lon="5.89001">
        <ele>866.20001220703</ele>
        <time>2018-06-06T07:21:18.000Z</time>
      </trkpt>
      <trkpt lat="44.76067" lon="5.8901">
        <ele>862.79998779297</ele>
        <time>2018-06-06T07:21:45.000Z</time>
      </trkpt>
      <trkpt lat="44.76075" lon="5.89034">
        <ele>863.20001220703</ele>
        <time>2018-06-06T07:22:14.000Z</time>
      </trkpt>
      <trkpt lat="44.76076" lon="5.8904">
        <ele>863</ele>
        <time>2018-06-06T07:22:19.000Z</time>
      </trkpt>
      <trkpt lat="44.76087" lon="5.89056">
        <ele>862.59997558594</ele>
        <time>2018-06-06T07:22:37.000Z</time>
      </trkpt>
      <trkpt lat="44.76088" lon="5.8907">
        <ele>863</ele>
        <time>2018-06-06T07:22:57.000Z</time>
      </trkpt>
      <trkpt lat="44.76107" lon="5.89089">
        <ele>863.40002441406</ele>
        <time>2018-06-06T07:23:29.000Z</time>
      </trkpt>
      <trkpt lat="44.76112" lon="5.89101">
        <ele>864</ele>
        <time>2018-06-06T07:23:40.000Z</time>
      </trkpt>
      <trkpt lat="44.76112" lon="5.89105">
        <ele>864</ele>
        <time>2018-06-06T07:23:43.000Z</time>
      </trkpt>
      <trkpt lat="44.76115" lon="5.89111">
        <ele>864</ele>
        <time>2018-06-06T07:23:48.000Z</time>
      </trkpt>
      <trkpt lat="44.76124" lon="5.89144">
        <ele>865.40002441406</ele>
        <time>2018-06-06T07:24:17.000Z</time>
      </trkpt>
      <trkpt lat="44.76144" lon="5.89163">
        <ele>865.79998779297</ele>
        <time>2018-06-06T07:24:45.000Z</time>
      </trkpt>
      <trkpt lat="44.76166" lon="5.89187">
        <ele>865.79998779297</ele>
        <time>2018-06-06T07:25:15.000Z</time>
      </trkpt>
      <trkpt lat="44.7619" lon="5.89199">
        <ele>865</ele>
        <time>2018-06-06T07:25:40.000Z</time>
      </trkpt>
      <trkpt lat="44.762" lon="5.89204">
        <ele>864.79998779297</ele>
        <time>2018-06-06T07:25:51.000Z</time>
      </trkpt>
      <trkpt lat="44.76204" lon="5.89227">
        <ele>864</ele>
        <time>2018-06-06T07:26:10.000Z</time>
      </trkpt>
      <trkpt lat="44.7621" lon="5.89251">
        <ele>861.59997558594</ele>
        <time>2018-06-06T07:26:37.000Z</time>
      </trkpt>
      <trkpt lat="44.76215" lon="5.89278">
        <ele>859.79998779297</ele>
        <time>2018-06-06T07:27:07.000Z</time>
      </trkpt>
      <trkpt lat="44.76222" lon="5.89311">
        <ele>859.40002441406</ele>
        <time>2018-06-06T07:27:36.000Z</time>
      </trkpt>
      <trkpt lat="44.76239" lon="5.89348">
        <ele>858.79998779297</ele>
        <time>2018-06-06T07:28:05.000Z</time>
      </trkpt>
      <trkpt lat="44.7624" lon="5.89352">
        <ele>858.79998779297</ele>
        <time>2018-06-06T07:28:10.000Z</time>
      </trkpt>
      <trkpt lat="44.76252" lon="5.89376">
        <ele>858.79998779297</ele>
        <time>2018-06-06T07:28:35.000Z</time>
      </trkpt>
      <trkpt lat="44.76251" lon="5.89412">
        <ele>858.40002441406</ele>
        <time>2018-06-06T07:29:07.000Z</time>
      </trkpt>
      <trkpt lat="44.76256" lon="5.89425">
        <ele>858</ele>
        <time>2018-06-06T07:29:22.000Z</time>
      </trkpt>
      <trkpt lat="44.76243" lon="5.89428">
        <ele>858</ele>
        <time>2018-06-06T07:29:40.000Z</time>
      </trkpt>
      <trkpt lat="44.76253" lon="5.89449">
        <ele>858.40002441406</ele>
        <time>2018-06-06T07:30:01.000Z</time>
      </trkpt>
      <trkpt lat="44.76274" lon="5.89479">
        <ele>859.40002441406</ele>
        <time>2018-06-06T07:30:30.000Z</time>
      </trkpt>
      <trkpt lat="44.76273" lon="5.89516">
        <ele>860.79998779297</ele>
        <time>2018-06-06T07:30:52.000Z</time>
      </trkpt>
      <trkpt lat="44.76298" lon="5.89547">
        <ele>862.40002441406</ele>
        <time>2018-06-06T07:31:20.000Z</time>
      </trkpt>
      <trkpt lat="44.76323" lon="5.89565">
        <ele>864.40002441406</ele>
        <time>2018-06-06T07:31:48.000Z</time>
      </trkpt>
      <trkpt lat="44.7634" lon="5.89574">
        <ele>864.59997558594</ele>
        <time>2018-06-06T07:32:10.000Z</time>
      </trkpt>
      <trkpt lat="44.7637" lon="5.89585">
        <ele>863.40002441406</ele>
        <time>2018-06-06T07:32:42.000Z</time>
      </trkpt>
      <trkpt lat="44.76389" lon="5.89629">
        <ele>861.40002441406</ele>
        <time>2018-06-06T07:33:12.000Z</time>
      </trkpt>
      <trkpt lat="44.76412" lon="5.89663">
        <ele>861.20001220703</ele>
        <time>2018-06-06T07:33:48.000Z</time>
      </trkpt>
      <trkpt lat="44.76423" lon="5.89679">
        <ele>860.79998779297</ele>
        <time>2018-06-06T07:34:04.000Z</time>
      </trkpt>
      <trkpt lat="44.76451" lon="5.89682">
        <ele>861.40002441406</ele>
        <time>2018-06-06T07:34:28.000Z</time>
      </trkpt>
      <trkpt lat="44.76465" lon="5.89692">
        <ele>861.20001220703</ele>
        <time>2018-06-06T07:34:44.000Z</time>
      </trkpt>
      <trkpt lat="44.76485" lon="5.89721">
        <ele>857.59997558594</ele>
        <time>2018-06-06T07:35:14.000Z</time>
      </trkpt>
      <trkpt lat="44.76504" lon="5.89747">
        <ele>855.59997558594</ele>
        <time>2018-06-06T07:35:41.000Z</time>
      </trkpt>
      <trkpt lat="44.76513" lon="5.89765">
        <ele>854.40002441406</ele>
        <time>2018-06-06T07:35:56.000Z</time>
      </trkpt>
      <trkpt lat="44.76517" lon="5.89769">
        <ele>854.40002441406</ele>
        <time>2018-06-06T07:36:04.000Z</time>
      </trkpt>
      <trkpt lat="44.76529" lon="5.89794">
        <ele>852.40002441406</ele>
        <time>2018-06-06T07:36:32.000Z</time>
      </trkpt>
      <trkpt lat="44.76537" lon="5.89816">
        <ele>851</ele>
        <time>2018-06-06T07:36:57.000Z</time>
      </trkpt>
      <trkpt lat="44.76557" lon="5.8984">
        <ele>849</ele>
        <time>2018-06-06T07:37:26.000Z</time>
      </trkpt>
      <trkpt lat="44.76565" lon="5.8987">
        <ele>848</ele>
        <time>2018-06-06T07:37:49.000Z</time>
      </trkpt>
      <trkpt lat="44.7657" lon="5.8988">
        <ele>847.59997558594</ele>
        <time>2018-06-06T07:38:00.000Z</time>
      </trkpt>
      <trkpt lat="44.76581" lon="5.89898">
        <ele>846.79998779297</ele>
        <time>2018-06-06T07:38:21.000Z</time>
      </trkpt>
      <trkpt lat="44.76588" lon="5.89924">
        <ele>845.59997558594</ele>
        <time>2018-06-06T07:38:41.000Z</time>
      </trkpt>
      <trkpt lat="44.76591" lon="5.89939">
        <ele>842.40002441406</ele>
        <time>2018-06-06T07:39:07.000Z</time>
      </trkpt>
      <trkpt lat="44.76612" lon="5.89974">
        <ele>840.20001220703</ele>
        <time>2018-06-06T07:39:38.000Z</time>
      </trkpt>
      <trkpt lat="44.7662" lon="5.90004">
        <ele>839</ele>
        <time>2018-06-06T07:40:04.000Z</time>
      </trkpt>
      <trkpt lat="44.76635" lon="5.90032">
        <ele>838</ele>
        <time>2018-06-06T07:40:30.000Z</time>
      </trkpt>
      <trkpt lat="44.76655" lon="5.90053">
        <ele>837.40002441406</ele>
        <time>2018-06-06T07:40:55.000Z</time>
      </trkpt>
      <trkpt lat="44.76671" lon="5.90083">
        <ele>836.20001220703</ele>
        <time>2018-06-06T07:41:21.000Z</time>
      </trkpt>
      <trkpt lat="44.76675" lon="5.90083">
        <ele>834.40002441406</ele>
        <time>2018-06-06T07:41:48.000Z</time>
      </trkpt>
      <trkpt lat="44.7667" lon="5.9008">
        <ele>833.79998779297</ele>
        <time>2018-06-06T07:42:06.000Z</time>
      </trkpt>
      <trkpt lat="44.76687" lon="5.90099">
        <ele>831.40002441406</ele>
        <time>2018-06-06T07:42:42.000Z</time>
      </trkpt>
      <trkpt lat="44.76693" lon="5.90115">
        <ele>829.20001220703</ele>
        <time>2018-06-06T07:43:07.000Z</time>
      </trkpt>
      <trkpt lat="44.76701" lon="5.90127">
        <ele>828.79998779297</ele>
        <time>2018-06-06T07:43:33.000Z</time>
      </trkpt>
      <trkpt lat="44.76702" lon="5.90133">
        <ele>826.79998779297</ele>
        <time>2018-06-06T07:44:04.000Z</time>
      </trkpt>
      <trkpt lat="44.76705" lon="5.90139">
        <ele>825.79998779297</ele>
        <time>2018-06-06T07:44:12.000Z</time>
      </trkpt>
      <trkpt lat="44.76715" lon="5.90149">
        <ele>825.59997558594</ele>
        <time>2018-06-06T07:44:37.000Z</time>
      </trkpt>
      <trkpt lat="44.76718" lon="5.90138">
        <ele>823.40002441406</ele>
        <time>2018-06-06T07:44:51.000Z</time>
      </trkpt>
      <trkpt lat="44.76719" lon="5.90134">
        <ele>822.79998779297</ele>
        <time>2018-06-06T07:45:17.000Z</time>
      </trkpt>
      <trkpt lat="44.76715" lon="5.90137">
        <ele>822.79998779297</ele>
        <time>2018-06-06T07:45:25.000Z</time>
      </trkpt>
      <trkpt lat="44.76715" lon="5.90141">
        <ele>822.20001220703</ele>
        <time>2018-06-06T07:45:44.000Z</time>
      </trkpt>
      <trkpt lat="44.76717" lon="5.90136">
        <ele>822</ele>
        <time>2018-06-06T07:46:05.000Z</time>
      </trkpt>
      <trkpt lat="44.76717" lon="5.90136">
        <ele>822</ele>
        <time>2018-06-06T07:46:06.000Z</time>
      </trkpt>
      <trkpt lat="44.76724" lon="5.9013">
        <ele>823.20001220703</ele>
        <time>2018-06-06T07:46:36.000Z</time>
      </trkpt>
      <trkpt lat="44.7672" lon="5.90124">
        <ele>828.20001220703</ele>
        <time>2018-06-06T07:47:02.000Z</time>
      </trkpt>
      <trkpt lat="44.76731" lon="5.901">
        <ele>829.59997558594</ele>
        <time>2018-06-06T07:47:30.000Z</time>
      </trkpt>
      <trkpt lat="44.76743" lon="5.90077">
        <ele>829.40002441406</ele>
        <time>2018-06-06T07:47:53.000Z</time>
      </trkpt>
      <trkpt lat="44.76744" lon="5.90074">
        <ele>829.40002441406</ele>
        <time>2018-06-06T07:47:55.000Z</time>
      </trkpt>
      <trkpt lat="44.76754" lon="5.90051">
        <ele>829.79998779297</ele>
        <time>2018-06-06T07:48:18.000Z</time>
      </trkpt>
      <trkpt lat="44.76757" lon="5.90041">
        <ele>830</ele>
        <time>2018-06-06T07:48:26.000Z</time>
      </trkpt>
      <trkpt lat="44.76758" lon="5.90032">
        <ele>830.20001220703</ele>
        <time>2018-06-06T07:48:33.000Z</time>
      </trkpt>
      <trkpt lat="44.76759" lon="5.90028">
        <ele>830.40002441406</ele>
        <time>2018-06-06T07:48:37.000Z</time>
      </trkpt>
      <trkpt lat="44.76757" lon="5.9002">
        <ele>830.79998779297</ele>
        <time>2018-06-06T07:48:45.000Z</time>
      </trkpt>
      <trkpt lat="44.76759" lon="5.90022">
        <ele>831</ele>
        <time>2018-06-06T07:49:06.000Z</time>
      </trkpt>
      <trkpt lat="44.7676" lon="5.9005">
        <ele>831.20001220703</ele>
        <time>2018-06-06T07:49:29.000Z</time>
      </trkpt>
      <trkpt lat="44.76766" lon="5.90073">
        <ele>831.59997558594</ele>
        <time>2018-06-06T07:49:59.000Z</time>
      </trkpt>
      <trkpt lat="44.76769" lon="5.90093">
        <ele>832</ele>
        <time>2018-06-06T07:50:17.000Z</time>
      </trkpt>
      <trkpt lat="44.76774" lon="5.90107">
        <ele>833.20001220703</ele>
        <time>2018-06-06T07:50:38.000Z</time>
      </trkpt>
      <trkpt lat="44.76766" lon="5.90124">
        <ele>835.40002441406</ele>
        <time>2018-06-06T07:51:02.000Z</time>
      </trkpt>
      <trkpt lat="44.76767" lon="5.90127">
        <ele>849.20001220703</ele>
        <time>2018-06-06T07:51:47.000Z</time>
      </trkpt>
      <trkpt lat="44.76768" lon="5.90129">
        <ele>852</ele>
        <time>2018-06-06T07:51:58.000Z</time>
      </trkpt>
      <trkpt lat="44.76759" lon="5.90212">
        <ele>848.79998779297</ele>
        <time>2018-06-06T07:58:51.000Z</time>
      </trkpt>
      <trkpt lat="44.76754" lon="5.90223">
        <ele>848</ele>
        <time>2018-06-06T07:59:03.000Z</time>
      </trkpt>
      <trkpt lat="44.76752" lon="5.90226">
        <ele>848</ele>
        <time>2018-06-06T07:59:07.000Z</time>
      </trkpt>
      <trkpt lat="44.7675" lon="5.90234">
        <ele>847.59997558594</ele>
        <time>2018-06-06T07:59:15.000Z</time>
      </trkpt>
      <trkpt lat="44.76756" lon="5.90241">
        <ele>845.59997558594</ele>
        <time>2018-06-06T07:59:32.000Z</time>
      </trkpt>
      <trkpt lat="44.76746" lon="5.90261">
        <ele>843.59997558594</ele>
        <time>2018-06-06T08:00:01.000Z</time>
      </trkpt>
      <trkpt lat="44.76748" lon="5.90252">
        <ele>843.40002441406</ele>
        <time>2018-06-06T08:00:07.000Z</time>
      </trkpt>
      <trkpt lat="44.76748" lon="5.90239">
        <ele>843.59997558594</ele>
        <time>2018-06-06T08:00:19.000Z</time>
      </trkpt>
      <trkpt lat="44.76748" lon="5.90237">
        <ele>844</ele>
        <time>2018-06-06T08:01:00.000Z</time>
      </trkpt>
      <trkpt lat="44.7675" lon="5.90244">
        <ele>843.20001220703</ele>
        <time>2018-06-06T08:01:16.000Z</time>
      </trkpt>
      <trkpt lat="44.76759" lon="5.9025">
        <ele>843</ele>
        <time>2018-06-06T08:01:34.000Z</time>
      </trkpt>
      <trkpt lat="44.76766" lon="5.90241">
        <ele>844</ele>
        <time>2018-06-06T08:02:05.000Z</time>
      </trkpt>
      <trkpt lat="44.76767" lon="5.90232">
        <ele>843.59997558594</ele>
        <time>2018-06-06T08:02:19.000Z</time>
      </trkpt>
      <trkpt lat="44.76778" lon="5.90225">
        <ele>843.59997558594</ele>
        <time>2018-06-06T08:02:43.000Z</time>
      </trkpt>
      <trkpt lat="44.76788" lon="5.90208">
        <ele>843</ele>
        <time>2018-06-06T08:03:08.000Z</time>
      </trkpt>
      <trkpt lat="44.76803" lon="5.90194">
        <ele>841.40002441406</ele>
        <time>2018-06-06T08:03:37.000Z</time>
      </trkpt>
      <trkpt lat="44.7682" lon="5.90196">
        <ele>840.40002441406</ele>
        <time>2018-06-06T08:03:58.000Z</time>
      </trkpt>
      <trkpt lat="44.76838" lon="5.902">
        <ele>835.59997558594</ele>
        <time>2018-06-06T08:04:27.000Z</time>
      </trkpt>
      <trkpt lat="44.76848" lon="5.90206">
        <ele>832.79998779297</ele>
        <time>2018-06-06T08:04:48.000Z</time>
      </trkpt>
      <trkpt lat="44.76867" lon="5.90221">
        <ele>829.20001220703</ele>
        <time>2018-06-06T08:05:09.000Z</time>
      </trkpt>
      <trkpt lat="44.76884" lon="5.90227">
        <ele>825.79998779297</ele>
        <time>2018-06-06T08:05:34.000Z</time>
      </trkpt>
      <trkpt lat="44.76884" lon="5.90232">
        <ele>826.20001220703</ele>
        <time>2018-06-06T08:05:42.000Z</time>
      </trkpt>
      <trkpt lat="44.76882" lon="5.90235">
        <ele>826</ele>
        <time>2018-06-06T08:05:46.000Z</time>
      </trkpt>
      <trkpt lat="44.76877" lon="5.90235">
        <ele>825</ele>
        <time>2018-06-06T08:06:08.000Z</time>
      </trkpt>
      <trkpt lat="44.76877" lon="5.90229">
        <ele>825.79998779297</ele>
        <time>2018-06-06T08:06:18.000Z</time>
      </trkpt>
      <trkpt lat="44.76874" lon="5.90226">
        <ele>825.59997558594</ele>
        <time>2018-06-06T08:06:30.000Z</time>
      </trkpt>
      <trkpt lat="44.76887" lon="5.90255">
        <ele>823</ele>
        <time>2018-06-06T08:06:54.000Z</time>
      </trkpt>
      <trkpt lat="44.76897" lon="5.9028">
        <ele>821.79998779297</ele>
        <time>2018-06-06T08:07:17.000Z</time>
      </trkpt>
      <trkpt lat="44.76898" lon="5.90288">
        <ele>822</ele>
        <time>2018-06-06T08:07:25.000Z</time>
      </trkpt>
      <trkpt lat="44.76899" lon="5.90304">
        <ele>820.40002441406</ele>
        <time>2018-06-06T08:07:48.000Z</time>
      </trkpt>
      <trkpt lat="44.76905" lon="5.9029">
        <ele>821.59997558594</ele>
        <time>2018-06-06T08:08:11.000Z</time>
      </trkpt>
      <trkpt lat="44.76904" lon="5.90289">
        <ele>821.79998779297</ele>
        <time>2018-06-06T08:08:14.000Z</time>
      </trkpt>
      <trkpt lat="44.769" lon="5.90314">
        <ele>820</ele>
        <time>2018-06-06T08:08:36.000Z</time>
      </trkpt>
      <trkpt lat="44.76906" lon="5.90345">
        <ele>817.20001220703</ele>
        <time>2018-06-06T08:08:58.000Z</time>
      </trkpt>
      <trkpt lat="44.76912" lon="5.90372">
        <ele>816</ele>
        <time>2018-06-06T08:09:28.000Z</time>
      </trkpt>
      <trkpt lat="44.76917" lon="5.90374">
        <ele>815.20001220703</ele>
        <time>2018-06-06T08:10:06.000Z</time>
      </trkpt>
      <trkpt lat="44.76926" lon="5.90363">
        <ele>815.40002441406</ele>
        <time>2018-06-06T08:10:39.000Z</time>
      </trkpt>
      <trkpt lat="44.76937" lon="5.90377">
        <ele>814</ele>
        <time>2018-06-06T08:11:04.000Z</time>
      </trkpt>
      <trkpt lat="44.76948" lon="5.90398">
        <ele>812.40002441406</ele>
        <time>2018-06-06T08:11:26.000Z</time>
      </trkpt>
      <trkpt lat="44.76954" lon="5.90435">
        <ele>812</ele>
        <time>2018-06-06T08:11:52.000Z</time>
      </trkpt>
      <trkpt lat="44.76965" lon="5.90454">
        <ele>811.40002441406</ele>
        <time>2018-06-06T08:12:17.000Z</time>
      </trkpt>
      <trkpt lat="44.76976" lon="5.90481">
        <ele>810</ele>
        <time>2018-06-06T08:12:43.000Z</time>
      </trkpt>
      <trkpt lat="44.76976" lon="5.90484">
        <ele>810.40002441406</ele>
        <time>2018-06-06T08:13:12.000Z</time>
      </trkpt>
      <trkpt lat="44.76977" lon="5.90484">
        <ele>810.59997558594</ele>
        <time>2018-06-06T08:13:17.000Z</time>
      </trkpt>
      <trkpt lat="44.76988" lon="5.90508">
        <ele>810</ele>
        <time>2018-06-06T08:13:40.000Z</time>
      </trkpt>
      <trkpt lat="44.76992" lon="5.90518">
        <ele>810.20001220703</ele>
        <time>2018-06-06T08:13:48.000Z</time>
      </trkpt>
      <trkpt lat="44.77006" lon="5.9054">
        <ele>809.59997558594</ele>
        <time>2018-06-06T08:14:10.000Z</time>
      </trkpt>
      <trkpt lat="44.77028" lon="5.90555">
        <ele>809</ele>
        <time>2018-06-06T08:14:34.000Z</time>
      </trkpt>
      <trkpt lat="44.77053" lon="5.90563">
        <ele>808.79998779297</ele>
        <time>2018-06-06T08:14:59.000Z</time>
      </trkpt>
      <trkpt lat="44.77076" lon="5.9057">
        <ele>808.59997558594</ele>
        <time>2018-06-06T08:15:21.000Z</time>
      </trkpt>
      <trkpt lat="44.77099" lon="5.9057">
        <ele>806.59997558594</ele>
        <time>2018-06-06T08:15:47.000Z</time>
      </trkpt>
      <trkpt lat="44.77119" lon="5.90578">
        <ele>803.59997558594</ele>
        <time>2018-06-06T08:16:08.000Z</time>
      </trkpt>
      <trkpt lat="44.7714" lon="5.90595">
        <ele>799.40002441406</ele>
        <time>2018-06-06T08:16:30.000Z</time>
      </trkpt>
      <trkpt lat="44.77158" lon="5.90617">
        <ele>797</ele>
        <time>2018-06-06T08:16:53.000Z</time>
      </trkpt>
      <trkpt lat="44.77166" lon="5.90639">
        <ele>795</ele>
        <time>2018-06-06T08:17:17.000Z</time>
      </trkpt>
      <trkpt lat="44.77173" lon="5.9064">
        <ele>795.20001220703</ele>
        <time>2018-06-06T08:17:44.000Z</time>
      </trkpt>
      <trkpt lat="44.77174" lon="5.9063">
        <ele>796</ele>
        <time>2018-06-06T08:18:09.000Z</time>
      </trkpt>
      <trkpt lat="44.77169" lon="5.90639">
        <ele>797.79998779297</ele>
        <time>2018-06-06T08:18:45.000Z</time>
      </trkpt>
      <trkpt lat="44.77185" lon="5.90645">
        <ele>798.59997558594</ele>
        <time>2018-06-06T08:19:11.000Z</time>
      </trkpt>
      <trkpt lat="44.77186" lon="5.90652">
        <ele>800</ele>
        <time>2018-06-06T08:19:18.000Z</time>
      </trkpt>
      <trkpt lat="44.77194" lon="5.90672">
        <ele>803.59997558594</ele>
        <time>2018-06-06T08:19:53.000Z</time>
      </trkpt>
      <trkpt lat="44.77204" lon="5.90693">
        <ele>801.79998779297</ele>
        <time>2018-06-06T08:20:16.000Z</time>
      </trkpt>
      <trkpt lat="44.77227" lon="5.90713">
        <ele>800.79998779297</ele>
        <time>2018-06-06T08:20:40.000Z</time>
      </trkpt>
      <trkpt lat="44.77233" lon="5.9074">
        <ele>799</ele>
        <time>2018-06-06T08:21:04.000Z</time>
      </trkpt>
      <trkpt lat="44.77251" lon="5.90759">
        <ele>796</ele>
        <time>2018-06-06T08:21:28.000Z</time>
      </trkpt>
      <trkpt lat="44.77267" lon="5.90782">
        <ele>794.40002441406</ele>
        <time>2018-06-06T08:21:51.000Z</time>
      </trkpt>
      <trkpt lat="44.7728" lon="5.90824">
        <ele>794.79998779297</ele>
        <time>2018-06-06T08:22:17.000Z</time>
      </trkpt>
      <trkpt lat="44.77295" lon="5.9085">
        <ele>797.79998779297</ele>
        <time>2018-06-06T08:22:40.000Z</time>
      </trkpt>
      <trkpt lat="44.77307" lon="5.9087">
        <ele>794.40002441406</ele>
        <time>2018-06-06T08:23:04.000Z</time>
      </trkpt>
      <trkpt lat="44.77316" lon="5.90906">
        <ele>795.59997558594</ele>
        <time>2018-06-06T08:23:27.000Z</time>
      </trkpt>
      <trkpt lat="44.77332" lon="5.90926">
        <ele>797</ele>
        <time>2018-06-06T08:23:48.000Z</time>
      </trkpt>
      <trkpt lat="44.77348" lon="5.90935">
        <ele>798.40002441406</ele>
        <time>2018-06-06T08:24:09.000Z</time>
      </trkpt>
      <trkpt lat="44.77367" lon="5.90947">
        <ele>797.20001220703</ele>
        <time>2018-06-06T08:24:33.000Z</time>
      </trkpt>
      <trkpt lat="44.7738" lon="5.90967">
        <ele>793.20001220703</ele>
        <time>2018-06-06T08:25:00.000Z</time>
      </trkpt>
      <trkpt lat="44.77387" lon="5.9097">
        <ele>795.20001220703</ele>
        <time>2018-06-06T08:25:14.000Z</time>
      </trkpt>
      <trkpt lat="44.77391" lon="5.90998">
        <ele>795.79998779297</ele>
        <time>2018-06-06T08:25:36.000Z</time>
      </trkpt>
      <trkpt lat="44.77409" lon="5.91024">
        <ele>798.79998779297</ele>
        <time>2018-06-06T08:26:01.000Z</time>
      </trkpt>
      <trkpt lat="44.77425" lon="5.91048">
        <ele>800.59997558594</ele>
        <time>2018-06-06T08:26:25.000Z</time>
      </trkpt>
      <trkpt lat="44.77441" lon="5.91065">
        <ele>802.40002441406</ele>
        <time>2018-06-06T08:26:47.000Z</time>
      </trkpt>
      <trkpt lat="44.77459" lon="5.91088">
        <ele>801.59997558594</ele>
        <time>2018-06-06T08:27:15.000Z</time>
      </trkpt>
      <trkpt lat="44.77463" lon="5.91104">
        <ele>801.20001220703</ele>
        <time>2018-06-06T08:27:28.000Z</time>
      </trkpt>
      <trkpt lat="44.77463" lon="5.91117">
        <ele>801</ele>
        <time>2018-06-06T08:27:41.000Z</time>
      </trkpt>
      <trkpt lat="44.77466" lon="5.91139">
        <ele>801.20001220703</ele>
        <time>2018-06-06T08:27:57.000Z</time>
      </trkpt>
      <trkpt lat="44.77475" lon="5.91162">
        <ele>800.79998779297</ele>
        <time>2018-06-06T08:28:17.000Z</time>
      </trkpt>
      <trkpt lat="44.77477" lon="5.91174">
        <ele>801.59997558594</ele>
        <time>2018-06-06T08:28:26.000Z</time>
      </trkpt>
      <trkpt lat="44.77476" lon="5.91206">
        <ele>802.79998779297</ele>
        <time>2018-06-06T08:28:55.000Z</time>
      </trkpt>
      <trkpt lat="44.77476" lon="5.91208">
        <ele>802.59997558594</ele>
        <time>2018-06-06T08:28:57.000Z</time>
      </trkpt>
      <trkpt lat="44.77475" lon="5.91213">
        <ele>802.40002441406</ele>
        <time>2018-06-06T08:29:01.000Z</time>
      </trkpt>
      <trkpt lat="44.77474" lon="5.91221">
        <ele>802</ele>
        <time>2018-06-06T08:29:08.000Z</time>
      </trkpt>
      <trkpt lat="44.77461" lon="5.91251">
        <ele>802.20001220703</ele>
        <time>2018-06-06T08:29:27.000Z</time>
      </trkpt>
      <trkpt lat="44.77469" lon="5.91269">
        <ele>803.40002441406</ele>
        <time>2018-06-06T08:29:49.000Z</time>
      </trkpt>
      <trkpt lat="44.77483" lon="5.91278">
        <ele>803.79998779297</ele>
        <time>2018-06-06T08:30:06.000Z</time>
      </trkpt>
      <trkpt lat="44.77487" lon="5.91281">
        <ele>804.40002441406</ele>
        <time>2018-06-06T08:30:21.000Z</time>
      </trkpt>
      <trkpt lat="44.77477" lon="5.91293">
        <ele>804</ele>
        <time>2018-06-06T08:30:38.000Z</time>
      </trkpt>
      <trkpt lat="44.77473" lon="5.91299">
        <ele>803.79998779297</ele>
        <time>2018-06-06T08:30:44.000Z</time>
      </trkpt>
      <trkpt lat="44.77476" lon="5.91321">
        <ele>804</ele>
        <time>2018-06-06T08:31:03.000Z</time>
      </trkpt>
      <trkpt lat="44.77488" lon="5.91327">
        <ele>804.79998779297</ele>
        <time>2018-06-06T08:31:16.000Z</time>
      </trkpt>
      <trkpt lat="44.77503" lon="5.91321">
        <ele>805.79998779297</ele>
        <time>2018-06-06T08:31:31.000Z</time>
      </trkpt>
      <trkpt lat="44.77518" lon="5.9131">
        <ele>807.79998779297</ele>
        <time>2018-06-06T08:31:48.000Z</time>
      </trkpt>
      <trkpt lat="44.77531" lon="5.913">
        <ele>810</ele>
        <time>2018-06-06T08:32:10.000Z</time>
      </trkpt>
      <trkpt lat="44.77536" lon="5.91299">
        <ele>810.79998779297</ele>
        <time>2018-06-06T08:32:18.000Z</time>
      </trkpt>
      <trkpt lat="44.77536" lon="5.91298">
        <ele>811.59997558594</ele>
        <time>2018-06-06T08:32:27.000Z</time>
      </trkpt>
      <trkpt lat="44.77534" lon="5.91304">
        <ele>811.79998779297</ele>
        <time>2018-06-06T08:32:34.000Z</time>
      </trkpt>
      <trkpt lat="44.77535" lon="5.91307">
        <ele>812</ele>
        <time>2018-06-06T08:32:37.000Z</time>
      </trkpt>
      <trkpt lat="44.77538" lon="5.91309">
        <ele>812.20001220703</ele>
        <time>2018-06-06T08:32:41.000Z</time>
      </trkpt>
      <trkpt lat="44.77533" lon="5.9132">
        <ele>812.79998779297</ele>
        <time>2018-06-06T08:32:58.000Z</time>
      </trkpt>
      <trkpt lat="44.77531" lon="5.91333">
        <ele>813</ele>
        <time>2018-06-06T08:33:08.000Z</time>
      </trkpt>
      <trkpt lat="44.77529" lon="5.9134">
        <ele>813.20001220703</ele>
        <time>2018-06-06T08:33:15.000Z</time>
      </trkpt>
      <trkpt lat="44.77526" lon="5.91353">
        <ele>813.59997558594</ele>
        <time>2018-06-06T08:33:33.000Z</time>
      </trkpt>
      <trkpt lat="44.77533" lon="5.91352">
        <ele>814</ele>
        <time>2018-06-06T08:33:42.000Z</time>
      </trkpt>
      <trkpt lat="44.77544" lon="5.91338">
        <ele>815.40002441406</ele>
        <time>2018-06-06T08:34:01.000Z</time>
      </trkpt>
      <trkpt lat="44.77551" lon="5.91306">
        <ele>817</ele>
        <time>2018-06-06T08:34:23.000Z</time>
      </trkpt>
      <trkpt lat="44.77552" lon="5.91303">
        <ele>817.20001220703</ele>
        <time>2018-06-06T08:34:27.000Z</time>
      </trkpt>
      <trkpt lat="44.77554" lon="5.91299">
        <ele>817.20001220703</ele>
        <time>2018-06-06T08:34:30.000Z</time>
      </trkpt>
      <trkpt lat="44.77554" lon="5.91291">
        <ele>817.79998779297</ele>
        <time>2018-06-06T08:34:38.000Z</time>
      </trkpt>
      <trkpt lat="44.77558" lon="5.91258">
        <ele>819.20001220703</ele>
        <time>2018-06-06T08:35:00.000Z</time>
      </trkpt>
      <trkpt lat="44.77553" lon="5.91242">
        <ele>821.20001220703</ele>
        <time>2018-06-06T08:35:15.000Z</time>
      </trkpt>
      <trkpt lat="44.77553" lon="5.91238">
        <ele>821.59997558594</ele>
        <time>2018-06-06T08:35:19.000Z</time>
      </trkpt>
      <trkpt lat="44.77544" lon="5.91222">
        <ele>826.79998779297</ele>
        <time>2018-06-06T08:35:43.000Z</time>
      </trkpt>
      <trkpt lat="44.77569" lon="5.91213">
        <ele>833.40002441406</ele>
        <time>2018-06-06T08:36:14.000Z</time>
      </trkpt>
      <trkpt lat="44.77587" lon="5.91209">
        <ele>835.20001220703</ele>
        <time>2018-06-06T08:36:29.000Z</time>
      </trkpt>
      <trkpt lat="44.77603" lon="5.91195">
        <ele>837.79998779297</ele>
        <time>2018-06-06T08:36:50.000Z</time>
      </trkpt>
      <trkpt lat="44.776" lon="5.91187">
        <ele>841.20001220703</ele>
        <time>2018-06-06T08:37:05.000Z</time>
      </trkpt>
      <trkpt lat="44.77606" lon="5.91197">
        <ele>843</ele>
        <time>2018-06-06T08:37:27.000Z</time>
      </trkpt>
      <trkpt lat="44.77611" lon="5.91201">
        <ele>844</ele>
        <time>2018-06-06T08:37:39.000Z</time>
      </trkpt>
      <trkpt lat="44.77623" lon="5.91219">
        <ele>846.59997558594</ele>
        <time>2018-06-06T08:38:01.000Z</time>
      </trkpt>
      <trkpt lat="44.77623" lon="5.91223">
        <ele>847</ele>
        <time>2018-06-06T08:38:07.000Z</time>
      </trkpt>
      <trkpt lat="44.7761" lon="5.91238">
        <ele>849.59997558594</ele>
        <time>2018-06-06T08:38:28.000Z</time>
      </trkpt>
      <trkpt lat="44.77595" lon="5.91246">
        <ele>852.20001220703</ele>
        <time>2018-06-06T08:38:55.000Z</time>
      </trkpt>
      <trkpt lat="44.77583" lon="5.91246">
        <ele>855.20001220703</ele>
        <time>2018-06-06T08:39:19.000Z</time>
      </trkpt>
      <trkpt lat="44.7758" lon="5.91249">
        <ele>855.20001220703</ele>
        <time>2018-06-06T08:39:24.000Z</time>
      </trkpt>
      <trkpt lat="44.77583" lon="5.91265">
        <ele>856</ele>
        <time>2018-06-06T08:39:42.000Z</time>
      </trkpt>
      <trkpt lat="44.77586" lon="5.91273">
        <ele>856.40002441406</ele>
        <time>2018-06-06T08:39:50.000Z</time>
      </trkpt>
      <trkpt lat="44.77591" lon="5.91284">
        <ele>857.20001220703</ele>
        <time>2018-06-06T08:40:02.000Z</time>
      </trkpt>
      <trkpt lat="44.77594" lon="5.91286">
        <ele>857.79998779297</ele>
        <time>2018-06-06T08:40:06.000Z</time>
      </trkpt>
      <trkpt lat="44.776" lon="5.91283">
        <ele>861.40002441406</ele>
        <time>2018-06-06T08:40:24.000Z</time>
      </trkpt>
      <trkpt lat="44.77604" lon="5.91284">
        <ele>864</ele>
        <time>2018-06-06T08:40:42.000Z</time>
      </trkpt>
      <trkpt lat="44.77604" lon="5.91293">
        <ele>864.79998779297</ele>
        <time>2018-06-06T08:40:56.000Z</time>
      </trkpt>
      <trkpt lat="44.77607" lon="5.91295">
        <ele>865.59997558594</ele>
        <time>2018-06-06T08:41:03.000Z</time>
      </trkpt>
      <trkpt lat="44.77613" lon="5.91293">
        <ele>867</ele>
        <time>2018-06-06T08:41:09.000Z</time>
      </trkpt>
      <trkpt lat="44.77629" lon="5.913">
        <ele>870.59997558594</ele>
        <time>2018-06-06T08:41:40.000Z</time>
      </trkpt>
      <trkpt lat="44.77637" lon="5.91298">
        <ele>872.59997558594</ele>
        <time>2018-06-06T08:41:56.000Z</time>
      </trkpt>
      <trkpt lat="44.77637" lon="5.91297">
        <ele>873.20001220703</ele>
        <time>2018-06-06T08:41:58.000Z</time>
      </trkpt>
      <trkpt lat="44.77641" lon="5.9129">
        <ele>877.79998779297</ele>
        <time>2018-06-06T08:42:20.000Z</time>
      </trkpt>
      <trkpt lat="44.77644" lon="5.91286">
        <ele>880.20001220703</ele>
        <time>2018-06-06T08:42:30.000Z</time>
      </trkpt>
      <trkpt lat="44.77657" lon="5.91286">
        <ele>886.79998779297</ele>
        <time>2018-06-06T08:42:55.000Z</time>
      </trkpt>
      <trkpt lat="44.77677" lon="5.91279">
        <ele>897.20001220703</ele>
        <time>2018-06-06T08:43:26.000Z</time>
      </trkpt>
      <trkpt lat="44.77699" lon="5.91267">
        <ele>905</ele>
        <time>2018-06-06T08:43:50.000Z</time>
      </trkpt>
      <trkpt lat="44.77701" lon="5.91266">
        <ele>905.40002441406</ele>
        <time>2018-06-06T08:43:52.000Z</time>
      </trkpt>
      <trkpt lat="44.77725" lon="5.91252">
        <ele>910.59997558594</ele>
        <time>2018-06-06T08:44:19.000Z</time>
      </trkpt>
      <trkpt lat="44.77747" lon="5.91238">
        <ele>918</ele>
        <time>2018-06-06T08:44:51.000Z</time>
      </trkpt>
      <trkpt lat="44.77755" lon="5.91203">
        <ele>919</ele>
        <time>2018-06-06T08:45:17.000Z</time>
      </trkpt>
      <trkpt lat="44.77778" lon="5.91164">
        <ele>922.20001220703</ele>
        <time>2018-06-06T08:45:45.000Z</time>
      </trkpt>
      <trkpt lat="44.77786" lon="5.91158">
        <ele>923.40002441406</ele>
        <time>2018-06-06T08:45:52.000Z</time>
      </trkpt>
      <trkpt lat="44.77804" lon="5.91154">
        <ele>925.40002441406</ele>
        <time>2018-06-06T08:46:13.000Z</time>
      </trkpt>
      <trkpt lat="44.77828" lon="5.91146">
        <ele>927.20001220703</ele>
        <time>2018-06-06T08:46:35.000Z</time>
      </trkpt>
      <trkpt lat="44.77844" lon="5.9116">
        <ele>927.59997558594</ele>
        <time>2018-06-06T08:46:58.000Z</time>
      </trkpt>
      <trkpt lat="44.77861" lon="5.91135">
        <ele>926.59997558594</ele>
        <time>2018-06-06T08:47:20.000Z</time>
      </trkpt>
      <trkpt lat="44.7789" lon="5.91121">
        <ele>925.59997558594</ele>
        <time>2018-06-06T08:47:44.000Z</time>
      </trkpt>
      <trkpt lat="44.77907" lon="5.91111">
        <ele>922.59997558594</ele>
        <time>2018-06-06T08:48:03.000Z</time>
      </trkpt>
      <trkpt lat="44.77911" lon="5.91097">
        <ele>919</ele>
        <time>2018-06-06T08:48:13.000Z</time>
      </trkpt>
      <trkpt lat="44.77921" lon="5.91069">
        <ele>914</ele>
        <time>2018-06-06T08:48:34.000Z</time>
      </trkpt>
      <trkpt lat="44.77945" lon="5.91046">
        <ele>913</ele>
        <time>2018-06-06T08:49:02.000Z</time>
      </trkpt>
      <trkpt lat="44.77969" lon="5.91058">
        <ele>910.40002441406</ele>
        <time>2018-06-06T08:49:28.000Z</time>
      </trkpt>
      <trkpt lat="44.77974" lon="5.91061">
        <ele>909.40002441406</ele>
        <time>2018-06-06T08:49:35.000Z</time>
      </trkpt>
      <trkpt lat="44.77989" lon="5.91074">
        <ele>907.79998779297</ele>
        <time>2018-06-06T08:49:50.000Z</time>
      </trkpt>
      <trkpt lat="44.77992" lon="5.91077">
        <ele>907.79998779297</ele>
        <time>2018-06-06T08:49:54.000Z</time>
      </trkpt>
      <trkpt lat="44.78" lon="5.91092">
        <ele>907.79998779297</ele>
        <time>2018-06-06T08:50:07.000Z</time>
      </trkpt>
      <trkpt lat="44.78002" lon="5.91099">
        <ele>906.79998779297</ele>
        <time>2018-06-06T08:50:13.000Z</time>
      </trkpt>
      <trkpt lat="44.78004" lon="5.91102">
        <ele>906.59997558594</ele>
        <time>2018-06-06T08:50:16.000Z</time>
      </trkpt>
      <trkpt lat="44.78011" lon="5.91118">
        <ele>906.59997558594</ele>
        <time>2018-06-06T08:50:32.000Z</time>
      </trkpt>
      <trkpt lat="44.78012" lon="5.91156">
        <ele>901</ele>
        <time>2018-06-06T08:50:59.000Z</time>
      </trkpt>
      <trkpt lat="44.78015" lon="5.91174">
        <ele>897</ele>
        <time>2018-06-06T08:51:16.000Z</time>
      </trkpt>
      <trkpt lat="44.78014" lon="5.91171">
        <ele>894.40002441406</ele>
        <time>2018-06-06T08:51:27.000Z</time>
      </trkpt>
      <trkpt lat="44.78002" lon="5.91168">
        <ele>882.79998779297</ele>
        <time>2018-06-06T08:52:19.000Z</time>
      </trkpt>
      <trkpt lat="44.78023" lon="5.91191">
        <ele>880.20001220703</ele>
        <time>2018-06-06T08:52:48.000Z</time>
      </trkpt>
      <trkpt lat="44.78032" lon="5.912">
        <ele>879.40002441406</ele>
        <time>2018-06-06T08:53:00.000Z</time>
      </trkpt>
      <trkpt lat="44.78041" lon="5.91229">
        <ele>875.40002441406</ele>
        <time>2018-06-06T08:53:23.000Z</time>
      </trkpt>
      <trkpt lat="44.78051" lon="5.91225">
        <ele>873.59997558594</ele>
        <time>2018-06-06T08:53:33.000Z</time>
      </trkpt>
      <trkpt lat="44.78091" lon="5.91233">
        <ele>869</ele>
        <time>2018-06-06T08:54:00.000Z</time>
      </trkpt>
      <trkpt lat="44.7811" lon="5.91258">
        <ele>866.59997558594</ele>
        <time>2018-06-06T08:54:22.000Z</time>
      </trkpt>
      <trkpt lat="44.78114" lon="5.91275">
        <ele>863</ele>
        <time>2018-06-06T08:54:34.000Z</time>
      </trkpt>
      <trkpt lat="44.78111" lon="5.91295">
        <ele>862</ele>
        <time>2018-06-06T08:54:45.000Z</time>
      </trkpt>
      <trkpt lat="44.7811" lon="5.91298">
        <ele>862.59997558594</ele>
        <time>2018-06-06T08:54:48.000Z</time>
      </trkpt>
      <trkpt lat="44.78116" lon="5.91313">
        <ele>865.59997558594</ele>
        <time>2018-06-06T08:55:30.000Z</time>
      </trkpt>
      <trkpt lat="44.78115" lon="5.91326">
        <ele>865.59997558594</ele>
        <time>2018-06-06T08:55:36.000Z</time>
      </trkpt>
      <trkpt lat="44.78099" lon="5.9136">
        <ele>865.20001220703</ele>
        <time>2018-06-06T08:56:00.000Z</time>
      </trkpt>
      <trkpt lat="44.78092" lon="5.91394">
        <ele>862.59997558594</ele>
        <time>2018-06-06T08:56:20.000Z</time>
      </trkpt>
      <trkpt lat="44.781" lon="5.91419">
        <ele>861</ele>
        <time>2018-06-06T08:56:41.000Z</time>
      </trkpt>
      <trkpt lat="44.78102" lon="5.91423">
        <ele>860.79998779297</ele>
        <time>2018-06-06T08:57:05.000Z</time>
      </trkpt>
      <trkpt lat="44.78132" lon="5.91451">
        <ele>860.59997558594</ele>
        <time>2018-06-06T09:02:21.000Z</time>
      </trkpt>
      <trkpt lat="44.78128" lon="5.91451">
        <ele>863.20001220703</ele>
        <time>2018-06-06T09:03:02.000Z</time>
      </trkpt>
      <trkpt lat="44.78134" lon="5.91452">
        <ele>863</ele>
        <time>2018-06-06T09:03:28.000Z</time>
      </trkpt>
      <trkpt lat="44.78153" lon="5.91421">
        <ele>862.40002441406</ele>
        <time>2018-06-06T09:03:59.000Z</time>
      </trkpt>
      <trkpt lat="44.78171" lon="5.91409">
        <ele>863</ele>
        <time>2018-06-06T09:04:14.000Z</time>
      </trkpt>
      <trkpt lat="44.78206" lon="5.91435">
        <ele>861.40002441406</ele>
        <time>2018-06-06T09:04:42.000Z</time>
      </trkpt>
      <trkpt lat="44.78208" lon="5.91442">
        <ele>860.59997558594</ele>
        <time>2018-06-06T09:04:53.000Z</time>
      </trkpt>
      <trkpt lat="44.78203" lon="5.91439">
        <ele>860</ele>
        <time>2018-06-06T09:04:58.000Z</time>
      </trkpt>
      <trkpt lat="44.78191" lon="5.91444">
        <ele>858</ele>
        <time>2018-06-06T09:05:23.000Z</time>
      </trkpt>
      <trkpt lat="44.78158" lon="5.9147">
        <ele>856</ele>
        <time>2018-06-06T09:05:50.000Z</time>
      </trkpt>
      <trkpt lat="44.78147" lon="5.91497">
        <ele>853.20001220703</ele>
        <time>2018-06-06T09:06:17.000Z</time>
      </trkpt>
      <trkpt lat="44.78149" lon="5.91495">
        <ele>853</ele>
        <time>2018-06-06T09:06:19.000Z</time>
      </trkpt>
      <trkpt lat="44.78176" lon="5.91478">
        <ele>850.59997558594</ele>
        <time>2018-06-06T09:06:49.000Z</time>
      </trkpt>
      <trkpt lat="44.78195" lon="5.91502">
        <ele>846.59997558594</ele>
        <time>2018-06-06T09:07:13.000Z</time>
      </trkpt>
      <trkpt lat="44.78198" lon="5.91505">
        <ele>846.20001220703</ele>
        <time>2018-06-06T09:07:16.000Z</time>
      </trkpt>
      <trkpt lat="44.78225" lon="5.91532">
        <ele>842</ele>
        <time>2018-06-06T09:07:47.000Z</time>
      </trkpt>
      <trkpt lat="44.78226" lon="5.9154">
        <ele>840.40002441406</ele>
        <time>2018-06-06T09:07:57.000Z</time>
      </trkpt>
      <trkpt lat="44.78225" lon="5.91544">
        <ele>839</ele>
        <time>2018-06-06T09:08:11.000Z</time>
      </trkpt>
      <trkpt lat="44.78217" lon="5.91544">
        <ele>837.40002441406</ele>
        <time>2018-06-06T09:08:32.000Z</time>
      </trkpt>
      <trkpt lat="44.78199" lon="5.91543">
        <ele>836.59997558594</ele>
        <time>2018-06-06T09:08:53.000Z</time>
      </trkpt>
      <trkpt lat="44.78182" lon="5.91541">
        <ele>836</ele>
        <time>2018-06-06T09:09:04.000Z</time>
      </trkpt>
      <trkpt lat="44.78162" lon="5.91543">
        <ele>836</ele>
        <time>2018-06-06T09:09:18.000Z</time>
      </trkpt>
      <trkpt lat="44.78159" lon="5.91553">
        <ele>835.59997558594</ele>
        <time>2018-06-06T09:09:26.000Z</time>
      </trkpt>
      <trkpt lat="44.7816" lon="5.91581">
        <ele>833.59997558594</ele>
        <time>2018-06-06T09:09:46.000Z</time>
      </trkpt>
      <trkpt lat="44.78152" lon="5.916">
        <ele>832</ele>
        <time>2018-06-06T09:10:02.000Z</time>
      </trkpt>
      <trkpt lat="44.78143" lon="5.91613">
        <ele>830.59997558594</ele>
        <time>2018-06-06T09:10:16.000Z</time>
      </trkpt>
      <trkpt lat="44.78138" lon="5.91628">
        <ele>830.20001220703</ele>
        <time>2018-06-06T09:10:27.000Z</time>
      </trkpt>
      <trkpt lat="44.78146" lon="5.91672">
        <ele>826</ele>
        <time>2018-06-06T09:10:56.000Z</time>
      </trkpt>
      <trkpt lat="44.78147" lon="5.917">
        <ele>823.20001220703</ele>
        <time>2018-06-06T09:11:20.000Z</time>
      </trkpt>
      <trkpt lat="44.78144" lon="5.91703">
        <ele>822.20001220703</ele>
        <time>2018-06-06T09:11:28.000Z</time>
      </trkpt>
      <trkpt lat="44.78123" lon="5.91725">
        <ele>818.20001220703</ele>
        <time>2018-06-06T09:11:55.000Z</time>
      </trkpt>
      <trkpt lat="44.78121" lon="5.91731">
        <ele>818</ele>
        <time>2018-06-06T09:12:03.000Z</time>
      </trkpt>
      <trkpt lat="44.78106" lon="5.91748">
        <ele>816.79998779297</ele>
        <time>2018-06-06T09:12:26.000Z</time>
      </trkpt>
      <trkpt lat="44.78095" lon="5.91768">
        <ele>816</ele>
        <time>2018-06-06T09:12:39.000Z</time>
      </trkpt>
      <trkpt lat="44.78093" lon="5.91779">
        <ele>815.40002441406</ele>
        <time>2018-06-06T09:12:49.000Z</time>
      </trkpt>
      <trkpt lat="44.78103" lon="5.91778">
        <ele>814.40002441406</ele>
        <time>2018-06-06T09:13:10.000Z</time>
      </trkpt>
      <trkpt lat="44.78124" lon="5.91757">
        <ele>813.20001220703</ele>
        <time>2018-06-06T09:13:35.000Z</time>
      </trkpt>
      <trkpt lat="44.78145" lon="5.91734">
        <ele>810.20001220703</ele>
        <time>2018-06-06T09:14:02.000Z</time>
      </trkpt>
      <trkpt lat="44.78159" lon="5.91725">
        <ele>808.59997558594</ele>
        <time>2018-06-06T09:14:25.000Z</time>
      </trkpt>
      <trkpt lat="44.78169" lon="5.91695">
        <ele>804</ele>
        <time>2018-06-06T09:14:49.000Z</time>
      </trkpt>
      <trkpt lat="44.78191" lon="5.91679">
        <ele>803.40002441406</ele>
        <time>2018-06-06T09:15:08.000Z</time>
      </trkpt>
      <trkpt lat="44.78204" lon="5.91692">
        <ele>801</ele>
        <time>2018-06-06T09:15:32.000Z</time>
      </trkpt>
      <trkpt lat="44.78206" lon="5.91696">
        <ele>800.59997558594</ele>
        <time>2018-06-06T09:15:41.000Z</time>
      </trkpt>
      <trkpt lat="44.78205" lon="5.91698">
        <ele>800.59997558594</ele>
        <time>2018-06-06T09:15:43.000Z</time>
      </trkpt>
      <trkpt lat="44.78198" lon="5.91718">
        <ele>799.40002441406</ele>
        <time>2018-06-06T09:16:06.000Z</time>
      </trkpt>
      <trkpt lat="44.78183" lon="5.91727">
        <ele>797.79998779297</ele>
        <time>2018-06-06T09:16:24.000Z</time>
      </trkpt>
      <trkpt lat="44.78158" lon="5.91749">
        <ele>796.20001220703</ele>
        <time>2018-06-06T09:16:55.000Z</time>
      </trkpt>
      <trkpt lat="44.78127" lon="5.9177">
        <ele>794.79998779297</ele>
        <time>2018-06-06T09:17:21.000Z</time>
      </trkpt>
      <trkpt lat="44.78118" lon="5.91779">
        <ele>794.40002441406</ele>
        <time>2018-06-06T09:17:37.000Z</time>
      </trkpt>
      <trkpt lat="44.78114" lon="5.91799">
        <ele>794</ele>
        <time>2018-06-06T09:17:49.000Z</time>
      </trkpt>
      <trkpt lat="44.78099" lon="5.91828">
        <ele>792.40002441406</ele>
        <time>2018-06-06T09:18:15.000Z</time>
      </trkpt>
      <trkpt lat="44.78101" lon="5.91857">
        <ele>789.40002441406</ele>
        <time>2018-06-06T09:18:40.000Z</time>
      </trkpt>
      <trkpt lat="44.78108" lon="5.9188">
        <ele>787</ele>
        <time>2018-06-06T09:19:06.000Z</time>
      </trkpt>
      <trkpt lat="44.78113" lon="5.91913">
        <ele>784.59997558594</ele>
        <time>2018-06-06T09:19:32.000Z</time>
      </trkpt>
      <trkpt lat="44.78112" lon="5.91913">
        <ele>784.59997558594</ele>
        <time>2018-06-06T09:19:38.000Z</time>
      </trkpt>
      <trkpt lat="44.78122" lon="5.91933">
        <ele>784.20001220703</ele>
        <time>2018-06-06T09:20:07.000Z</time>
      </trkpt>
      <trkpt lat="44.78136" lon="5.91959">
        <ele>784.40002441406</ele>
        <time>2018-06-06T09:20:33.000Z</time>
      </trkpt>
      <trkpt lat="44.78151" lon="5.91987">
        <ele>783.59997558594</ele>
        <time>2018-06-06T09:21:04.000Z</time>
      </trkpt>
      <trkpt lat="44.78157" lon="5.91999">
        <ele>783.59997558594</ele>
        <time>2018-06-06T09:21:19.000Z</time>
      </trkpt>
      <trkpt lat="44.78189" lon="5.92022">
        <ele>785.59997558594</ele>
        <time>2018-06-06T09:21:45.000Z</time>
      </trkpt>
      <trkpt lat="44.78208" lon="5.92034">
        <ele>787</ele>
        <time>2018-06-06T09:22:07.000Z</time>
      </trkpt>
      <trkpt lat="44.78225" lon="5.92029">
        <ele>787.79998779297</ele>
        <time>2018-06-06T09:22:24.000Z</time>
      </trkpt>
      <trkpt lat="44.78251" lon="5.92031">
        <ele>796.20001220703</ele>
        <time>2018-06-06T09:22:54.000Z</time>
      </trkpt>
      <trkpt lat="44.78264" lon="5.92065">
        <ele>798.79998779297</ele>
        <time>2018-06-06T09:23:20.000Z</time>
      </trkpt>
      <trkpt lat="44.78265" lon="5.92072">
        <ele>799</ele>
        <time>2018-06-06T09:23:26.000Z</time>
      </trkpt>
      <trkpt lat="44.78255" lon="5.92095">
        <ele>799.79998779297</ele>
        <time>2018-06-06T09:23:43.000Z</time>
      </trkpt>
      <trkpt lat="44.78242" lon="5.9207">
        <ele>799.59997558594</ele>
        <time>2018-06-06T09:24:04.000Z</time>
      </trkpt>
      <trkpt lat="44.78227" lon="5.92056">
        <ele>799.20001220703</ele>
        <time>2018-06-06T09:24:29.000Z</time>
      </trkpt>
      <trkpt lat="44.78216" lon="5.9206">
        <ele>799.20001220703</ele>
        <time>2018-06-06T09:24:44.000Z</time>
      </trkpt>
      <trkpt lat="44.78207" lon="5.92083">
        <ele>798.59997558594</ele>
        <time>2018-06-06T09:25:11.000Z</time>
      </trkpt>
      <trkpt lat="44.7821" lon="5.92108">
        <ele>798.59997558594</ele>
        <time>2018-06-06T09:25:35.000Z</time>
      </trkpt>
      <trkpt lat="44.78212" lon="5.92118">
        <ele>798.59997558594</ele>
        <time>2018-06-06T09:25:41.000Z</time>
      </trkpt>
      <trkpt lat="44.78216" lon="5.92151">
        <ele>798.59997558594</ele>
        <time>2018-06-06T09:26:00.000Z</time>
      </trkpt>
      <trkpt lat="44.78214" lon="5.92185">
        <ele>799.20001220703</ele>
        <time>2018-06-06T09:26:19.000Z</time>
      </trkpt>
      <trkpt lat="44.78212" lon="5.92202">
        <ele>799.40002441406</ele>
        <time>2018-06-06T09:26:30.000Z</time>
      </trkpt>
      <trkpt lat="44.78209" lon="5.92224">
        <ele>799.20001220703</ele>
        <time>2018-06-06T09:26:41.000Z</time>
      </trkpt>
      <trkpt lat="44.78203" lon="5.92237">
        <ele>799.20001220703</ele>
        <time>2018-06-06T09:26:51.000Z</time>
      </trkpt>
      <trkpt lat="44.78197" lon="5.9226">
        <ele>799</ele>
        <time>2018-06-06T09:27:04.000Z</time>
      </trkpt>
      <trkpt lat="44.78188" lon="5.92273">
        <ele>799</ele>
        <time>2018-06-06T09:27:15.000Z</time>
      </trkpt>
      <trkpt lat="44.78183" lon="5.92276">
        <ele>799</ele>
        <time>2018-06-06T09:27:20.000Z</time>
      </trkpt>
      <trkpt lat="44.7818" lon="5.92279">
        <ele>799.79998779297</ele>
        <time>2018-06-06T09:27:25.000Z</time>
      </trkpt>
      <trkpt lat="44.78183" lon="5.92282">
        <ele>800.20001220703</ele>
        <time>2018-06-06T09:27:30.000Z</time>
      </trkpt>
      <trkpt lat="44.78186" lon="5.92282">
        <ele>800.40002441406</ele>
        <time>2018-06-06T09:27:33.000Z</time>
      </trkpt>
      <trkpt lat="44.78193" lon="5.92301">
        <ele>800.59997558594</ele>
        <time>2018-06-06T09:27:49.000Z</time>
      </trkpt>
      <trkpt lat="44.78192" lon="5.92303">
        <ele>801</ele>
        <time>2018-06-06T09:28:12.000Z</time>
      </trkpt>
      <trkpt lat="44.78184" lon="5.92303">
        <ele>802</ele>
        <time>2018-06-06T09:28:29.000Z</time>
      </trkpt>
      <trkpt lat="44.78179" lon="5.92301">
        <ele>802.40002441406</ele>
        <time>2018-06-06T09:28:33.000Z</time>
      </trkpt>
      <trkpt lat="44.78176" lon="5.92299">
        <ele>802.59997558594</ele>
        <time>2018-06-06T09:28:37.000Z</time>
      </trkpt>
      <trkpt lat="44.78175" lon="5.92295">
        <ele>804.79998779297</ele>
        <time>2018-06-06T09:28:49.000Z</time>
      </trkpt>
      <trkpt lat="44.7818" lon="5.92298">
        <ele>807</ele>
        <time>2018-06-06T09:29:11.000Z</time>
      </trkpt>
      <trkpt lat="44.78177" lon="5.9229">
        <ele>808</ele>
        <time>2018-06-06T09:29:47.000Z</time>
      </trkpt>
      <trkpt lat="44.78174" lon="5.92308">
        <ele>809</ele>
        <time>2018-06-06T09:30:23.000Z</time>
      </trkpt>
      <trkpt lat="44.78172" lon="5.92319">
        <ele>809</ele>
        <time>2018-06-06T09:30:34.000Z</time>
      </trkpt>
      <trkpt lat="44.78169" lon="5.92331">
        <ele>809.59997558594</ele>
        <time>2018-06-06T09:30:47.000Z</time>
      </trkpt>
      <trkpt lat="44.78169" lon="5.92333">
        <ele>809.59997558594</ele>
        <time>2018-06-06T09:30:49.000Z</time>
      </trkpt>
      <trkpt lat="44.78165" lon="5.92346">
        <ele>810.59997558594</ele>
        <time>2018-06-06T09:31:06.000Z</time>
      </trkpt>
      <trkpt lat="44.78162" lon="5.92374">
        <ele>813.40002441406</ele>
        <time>2018-06-06T09:31:37.000Z</time>
      </trkpt>
      <trkpt lat="44.78153" lon="5.92403">
        <ele>814.40002441406</ele>
        <time>2018-06-06T09:32:04.000Z</time>
      </trkpt>
      <trkpt lat="44.78148" lon="5.92418">
        <ele>815</ele>
        <time>2018-06-06T09:32:17.000Z</time>
      </trkpt>
      <trkpt lat="44.78146" lon="5.92448">
        <ele>818</ele>
        <time>2018-06-06T09:32:50.000Z</time>
      </trkpt>
      <trkpt lat="44.78134" lon="5.92468">
        <ele>820.20001220703</ele>
        <time>2018-06-06T09:33:23.000Z</time>
      </trkpt>
      <trkpt lat="44.78124" lon="5.92489">
        <ele>822</ele>
        <time>2018-06-06T09:33:47.000Z</time>
      </trkpt>
      <trkpt lat="44.78107" lon="5.92511">
        <ele>824.40002441406</ele>
        <time>2018-06-06T09:34:16.000Z</time>
      </trkpt>
      <trkpt lat="44.78103" lon="5.92514">
        <ele>825.20001220703</ele>
        <time>2018-06-06T09:34:20.000Z</time>
      </trkpt>
      <trkpt lat="44.78089" lon="5.9249">
        <ele>829</ele>
        <time>2018-06-06T09:34:47.000Z</time>
      </trkpt>
      <trkpt lat="44.78097" lon="5.92455">
        <ele>832.79998779297</ele>
        <time>2018-06-06T09:35:21.000Z</time>
      </trkpt>
      <trkpt lat="44.78097" lon="5.9246">
        <ele>836</ele>
        <time>2018-06-06T09:35:44.000Z</time>
      </trkpt>
      <trkpt lat="44.78093" lon="5.92474">
        <ele>837.79998779297</ele>
        <time>2018-06-06T09:36:04.000Z</time>
      </trkpt>
      <trkpt lat="44.7809" lon="5.92482">
        <ele>838.79998779297</ele>
        <time>2018-06-06T09:36:14.000Z</time>
      </trkpt>
      <trkpt lat="44.78085" lon="5.92488">
        <ele>839.59997558594</ele>
        <time>2018-06-06T09:36:21.000Z</time>
      </trkpt>
      <trkpt lat="44.78072" lon="5.92511">
        <ele>844.20001220703</ele>
        <time>2018-06-06T09:36:56.000Z</time>
      </trkpt>
      <trkpt lat="44.78067" lon="5.92533">
        <ele>847</ele>
        <time>2018-06-06T09:37:25.000Z</time>
      </trkpt>
      <trkpt lat="44.78061" lon="5.92548">
        <ele>849.59997558594</ele>
        <time>2018-06-06T09:37:42.000Z</time>
      </trkpt>
      <trkpt lat="44.78059" lon="5.92555">
        <ele>850</ele>
        <time>2018-06-06T09:37:50.000Z</time>
      </trkpt>
      <trkpt lat="44.78049" lon="5.92572">
        <ele>852.79998779297</ele>
        <time>2018-06-06T09:38:10.000Z</time>
      </trkpt>
      <trkpt lat="44.78045" lon="5.92583">
        <ele>855</ele>
        <time>2018-06-06T09:38:30.000Z</time>
      </trkpt>
      <trkpt lat="44.78041" lon="5.92595">
        <ele>855.59997558594</ele>
        <time>2018-06-06T09:38:47.000Z</time>
      </trkpt>
      <trkpt lat="44.78041" lon="5.926">
        <ele>855.79998779297</ele>
        <time>2018-06-06T09:38:52.000Z</time>
      </trkpt>
      <trkpt lat="44.7803" lon="5.92616">
        <ele>859.20001220703</ele>
        <time>2018-06-06T09:39:22.000Z</time>
      </trkpt>
      <trkpt lat="44.7803" lon="5.92617">
        <ele>859.40002441406</ele>
        <time>2018-06-06T09:39:24.000Z</time>
      </trkpt>
      <trkpt lat="44.78025" lon="5.92641">
        <ele>861.40002441406</ele>
        <time>2018-06-06T09:39:55.000Z</time>
      </trkpt>
      <trkpt lat="44.78019" lon="5.92652">
        <ele>862.20001220703</ele>
        <time>2018-06-06T09:40:12.000Z</time>
      </trkpt>
      <trkpt lat="44.78011" lon="5.92684">
        <ele>864</ele>
        <time>2018-06-06T09:40:44.000Z</time>
      </trkpt>
      <trkpt lat="44.78002" lon="5.92702">
        <ele>866</ele>
        <time>2018-06-06T09:41:10.000Z</time>
      </trkpt>
      <trkpt lat="44.7799" lon="5.92717">
        <ele>868.40002441406</ele>
        <time>2018-06-06T09:41:32.000Z</time>
      </trkpt>
      <trkpt lat="44.77985" lon="5.92732">
        <ele>869.59997558594</ele>
        <time>2018-06-06T09:41:49.000Z</time>
      </trkpt>
      <trkpt lat="44.77972" lon="5.92746">
        <ele>871.79998779297</ele>
        <time>2018-06-06T09:42:14.000Z</time>
      </trkpt>
      <trkpt lat="44.77964" lon="5.92775">
        <ele>874.20001220703</ele>
        <time>2018-06-06T09:42:44.000Z</time>
      </trkpt>
      <trkpt lat="44.77959" lon="5.92797">
        <ele>874.59997558594</ele>
        <time>2018-06-06T09:43:05.000Z</time>
      </trkpt>
      <trkpt lat="44.77957" lon="5.92808">
        <ele>874.79998779297</ele>
        <time>2018-06-06T09:43:14.000Z</time>
      </trkpt>
      <trkpt lat="44.77953" lon="5.92811">
        <ele>876</ele>
        <time>2018-06-06T09:43:17.000Z</time>
      </trkpt>
      <trkpt lat="44.77952" lon="5.9281">
        <ele>876.59997558594</ele>
        <time>2018-06-06T09:43:19.000Z</time>
      </trkpt>
      <trkpt lat="44.77942" lon="5.92781">
        <ele>881</ele>
        <time>2018-06-06T09:43:53.000Z</time>
      </trkpt>
      <trkpt lat="44.77936" lon="5.92747">
        <ele>885</ele>
        <time>2018-06-06T09:44:21.000Z</time>
      </trkpt>
      <trkpt lat="44.77937" lon="5.92715">
        <ele>889.40002441406</ele>
        <time>2018-06-06T09:44:51.000Z</time>
      </trkpt>
      <trkpt lat="44.77937" lon="5.92686">
        <ele>893.79998779297</ele>
        <time>2018-06-06T09:45:20.000Z</time>
      </trkpt>
      <trkpt lat="44.7794" lon="5.9266">
        <ele>895.20001220703</ele>
        <time>2018-06-06T09:45:46.000Z</time>
      </trkpt>
      <trkpt lat="44.77946" lon="5.92642">
        <ele>897.20001220703</ele>
        <time>2018-06-06T09:46:09.000Z</time>
      </trkpt>
      <trkpt lat="44.77946" lon="5.92641">
        <ele>897.40002441406</ele>
        <time>2018-06-06T09:46:10.000Z</time>
      </trkpt>
      <trkpt lat="44.77948" lon="5.92638">
        <ele>898.20001220703</ele>
        <time>2018-06-06T09:46:13.000Z</time>
      </trkpt>
      <trkpt lat="44.77945" lon="5.92618">
        <ele>900.59997558594</ele>
        <time>2018-06-06T09:46:39.000Z</time>
      </trkpt>
      <trkpt lat="44.77945" lon="5.92595">
        <ele>904.40002441406</ele>
        <time>2018-06-06T09:46:57.000Z</time>
      </trkpt>
      <trkpt lat="44.77946" lon="5.92574">
        <ele>907.40002441406</ele>
        <time>2018-06-06T09:47:22.000Z</time>
      </trkpt>
      <trkpt lat="44.77939" lon="5.92544">
        <ele>911.20001220703</ele>
        <time>2018-06-06T09:47:48.000Z</time>
      </trkpt>
      <trkpt lat="44.77921" lon="5.92534">
        <ele>913.20001220703</ele>
        <time>2018-06-06T09:48:14.000Z</time>
      </trkpt>
      <trkpt lat="44.77904" lon="5.92539">
        <ele>915.59997558594</ele>
        <time>2018-06-06T09:48:43.000Z</time>
      </trkpt>
      <trkpt lat="44.77894" lon="5.92547">
        <ele>916.79998779297</ele>
        <time>2018-06-06T09:48:59.000Z</time>
      </trkpt>
      <trkpt lat="44.77816" lon="5.92626">
        <ele>944.79998779297</ele>
        <time>2018-06-06T09:53:39.000Z</time>
      </trkpt>
      <trkpt lat="44.77831" lon="5.92635">
        <ele>946.20001220703</ele>
        <time>2018-06-06T09:53:55.000Z</time>
      </trkpt>
      <trkpt lat="44.77836" lon="5.92642">
        <ele>948.20001220703</ele>
        <time>2018-06-06T09:54:15.000Z</time>
      </trkpt>
      <trkpt lat="44.77845" lon="5.92621">
        <ele>949.79998779297</ele>
        <time>2018-06-06T09:54:35.000Z</time>
      </trkpt>
      <trkpt lat="44.77849" lon="5.92611">
        <ele>951.40002441406</ele>
        <time>2018-06-06T09:55:03.000Z</time>
      </trkpt>
      <trkpt lat="44.7785" lon="5.9261">
        <ele>951.20001220703</ele>
        <time>2018-06-06T09:55:13.000Z</time>
      </trkpt>
      <trkpt lat="44.77788" lon="5.92637">
        <ele>950.59997558594</ele>
        <time>2018-06-06T09:59:04.000Z</time>
      </trkpt>
      <trkpt lat="44.77784" lon="5.92653">
        <ele>952.40002441406</ele>
        <time>2018-06-06T09:59:30.000Z</time>
      </trkpt>
      <trkpt lat="44.77796" lon="5.92654">
        <ele>952.20001220703</ele>
        <time>2018-06-06T09:59:50.000Z</time>
      </trkpt>
      <trkpt lat="44.77796" lon="5.92654">
        <ele>952</ele>
        <time>2018-06-06T09:59:54.000Z</time>
      </trkpt>
      <trkpt lat="44.77791" lon="5.92655">
        <ele>953.59997558594</ele>
        <time>2018-06-06T10:00:23.000Z</time>
      </trkpt>
      <trkpt lat="44.77789" lon="5.92656">
        <ele>956.20001220703</ele>
        <time>2018-06-06T10:00:54.000Z</time>
      </trkpt>
      <trkpt lat="44.77789" lon="5.92658">
        <ele>958</ele>
        <time>2018-06-06T10:01:43.000Z</time>
      </trkpt>
      <trkpt lat="44.77789" lon="5.92655">
        <ele>957.79998779297</ele>
        <time>2018-06-06T10:02:06.000Z</time>
      </trkpt>
      <trkpt lat="44.77644" lon="5.92591">
        <ele>961.59997558594</ele>
        <time>2018-06-06T10:50:48.000Z</time>
      </trkpt>
      <trkpt lat="44.77645" lon="5.92557">
        <ele>963.40002441406</ele>
        <time>2018-06-06T10:51:13.000Z</time>
      </trkpt>
      <trkpt lat="44.77631" lon="5.92515">
        <ele>964</ele>
        <time>2018-06-06T10:51:40.000Z</time>
      </trkpt>
      <trkpt lat="44.77619" lon="5.92477">
        <ele>965</ele>
        <time>2018-06-06T10:52:11.000Z</time>
      </trkpt>
      <trkpt lat="44.77606" lon="5.92449">
        <ele>965.20001220703</ele>
        <time>2018-06-06T10:52:36.000Z</time>
      </trkpt>
      <trkpt lat="44.77597" lon="5.92409">
        <ele>965.59997558594</ele>
        <time>2018-06-06T10:52:59.000Z</time>
      </trkpt>
      <trkpt lat="44.7758" lon="5.92378">
        <ele>966.40002441406</ele>
        <time>2018-06-06T10:53:24.000Z</time>
      </trkpt>
      <trkpt lat="44.77566" lon="5.92359">
        <ele>966.59997558594</ele>
        <time>2018-06-06T10:53:43.000Z</time>
      </trkpt>
      <trkpt lat="44.77552" lon="5.92332">
        <ele>966.40002441406</ele>
        <time>2018-06-06T10:54:08.000Z</time>
      </trkpt>
      <trkpt lat="44.77547" lon="5.92315">
        <ele>966.79998779297</ele>
        <time>2018-06-06T10:54:22.000Z</time>
      </trkpt>
      <trkpt lat="44.77547" lon="5.92305">
        <ele>968</ele>
        <time>2018-06-06T10:54:29.000Z</time>
      </trkpt>
      <trkpt lat="44.77542" lon="5.92308">
        <ele>971.79998779297</ele>
        <time>2018-06-06T10:55:10.000Z</time>
      </trkpt>
      <trkpt lat="44.77542" lon="5.92306">
        <ele>970.79998779297</ele>
        <time>2018-06-06T10:55:22.000Z</time>
      </trkpt>
      <trkpt lat="44.77536" lon="5.9228">
        <ele>968.40002441406</ele>
        <time>2018-06-06T10:55:47.000Z</time>
      </trkpt>
      <trkpt lat="44.77534" lon="5.92273">
        <ele>968</ele>
        <time>2018-06-06T10:55:51.000Z</time>
      </trkpt>
      <trkpt lat="44.77523" lon="5.92258">
        <ele>967.40002441406</ele>
        <time>2018-06-06T10:56:05.000Z</time>
      </trkpt>
      <trkpt lat="44.77518" lon="5.9224">
        <ele>968.59997558594</ele>
        <time>2018-06-06T10:56:31.000Z</time>
      </trkpt>
      <trkpt lat="44.7751" lon="5.92237">
        <ele>969</ele>
        <time>2018-06-06T10:56:52.000Z</time>
      </trkpt>
      <trkpt lat="44.77496" lon="5.92235">
        <ele>969</ele>
        <time>2018-06-06T10:57:12.000Z</time>
      </trkpt>
      <trkpt lat="44.77491" lon="5.92235">
        <ele>969</ele>
        <time>2018-06-06T10:57:22.000Z</time>
      </trkpt>
      <trkpt lat="44.77481" lon="5.92219">
        <ele>968.79998779297</ele>
        <time>2018-06-06T10:57:47.000Z</time>
      </trkpt>
      <trkpt lat="44.77467" lon="5.92202">
        <ele>967.79998779297</ele>
        <time>2018-06-06T10:58:04.000Z</time>
      </trkpt>
      <trkpt lat="44.77445" lon="5.92185">
        <ele>966.59997558594</ele>
        <time>2018-06-06T10:58:29.000Z</time>
      </trkpt>
      <trkpt lat="44.77434" lon="5.92175">
        <ele>965.59997558594</ele>
        <time>2018-06-06T10:58:48.000Z</time>
      </trkpt>
      <trkpt lat="44.77428" lon="5.92168">
        <ele>963</ele>
        <time>2018-06-06T10:59:15.000Z</time>
      </trkpt>
      <trkpt lat="44.77418" lon="5.92162">
        <ele>960</ele>
        <time>2018-06-06T10:59:45.000Z</time>
      </trkpt>
      <trkpt lat="44.77398" lon="5.92143">
        <ele>958.79998779297</ele>
        <time>2018-06-06T11:00:08.000Z</time>
      </trkpt>
      <trkpt lat="44.77383" lon="5.92117">
        <ele>956.79998779297</ele>
        <time>2018-06-06T11:00:34.000Z</time>
      </trkpt>
      <trkpt lat="44.77377" lon="5.92103">
        <ele>956.20001220703</ele>
        <time>2018-06-06T11:00:45.000Z</time>
      </trkpt>
      <trkpt lat="44.7737" lon="5.92077">
        <ele>956.59997558594</ele>
        <time>2018-06-06T11:01:06.000Z</time>
      </trkpt>
      <trkpt lat="44.77368" lon="5.92074">
        <ele>956.59997558594</ele>
        <time>2018-06-06T11:01:13.000Z</time>
      </trkpt>
      <trkpt lat="44.77359" lon="5.92082">
        <ele>954.40002441406</ele>
        <time>2018-06-06T11:01:40.000Z</time>
      </trkpt>
      <trkpt lat="44.77361" lon="5.92078">
        <ele>954.20001220703</ele>
        <time>2018-06-06T11:01:44.000Z</time>
      </trkpt>
      <trkpt lat="44.77359" lon="5.92073">
        <ele>953.59997558594</ele>
        <time>2018-06-06T11:02:05.000Z</time>
      </trkpt>
      <trkpt lat="44.77361" lon="5.92068">
        <ele>953.40002441406</ele>
        <time>2018-06-06T11:02:09.000Z</time>
      </trkpt>
      <trkpt lat="44.77363" lon="5.92064">
        <ele>953.40002441406</ele>
        <time>2018-06-06T11:02:12.000Z</time>
      </trkpt>
      <trkpt lat="44.77373" lon="5.92037">
        <ele>952.40002441406</ele>
        <time>2018-06-06T11:02:35.000Z</time>
      </trkpt>
      <trkpt lat="44.77383" lon="5.92012">
        <ele>951.40002441406</ele>
        <time>2018-06-06T11:02:57.000Z</time>
      </trkpt>
      <trkpt lat="44.77386" lon="5.91997">
        <ele>951</ele>
        <time>2018-06-06T11:03:10.000Z</time>
      </trkpt>
      <trkpt lat="44.77288" lon="5.9173">
        <ele>944</ele>
        <time>2018-06-06T11:08:52.000Z</time>
      </trkpt>
      <trkpt lat="44.77282" lon="5.91721">
        <ele>942</ele>
        <time>2018-06-06T11:09:00.000Z</time>
      </trkpt>
      <trkpt lat="44.77269" lon="5.91702">
        <ele>935.79998779297</ele>
        <time>2018-06-06T11:09:18.000Z</time>
      </trkpt>
      <trkpt lat="44.77266" lon="5.91701">
        <ele>934.40002441406</ele>
        <time>2018-06-06T11:09:22.000Z</time>
      </trkpt>
      <trkpt lat="44.77251" lon="5.9169">
        <ele>925.59997558594</ele>
        <time>2018-06-06T11:09:44.000Z</time>
      </trkpt>
      <trkpt lat="44.77239" lon="5.9167">
        <ele>921.20001220703</ele>
        <time>2018-06-06T11:10:04.000Z</time>
      </trkpt>
      <trkpt lat="44.77223" lon="5.9165">
        <ele>914.20001220703</ele>
        <time>2018-06-06T11:10:29.000Z</time>
      </trkpt>
      <trkpt lat="44.77218" lon="5.91645">
        <ele>911.59997558594</ele>
        <time>2018-06-06T11:10:37.000Z</time>
      </trkpt>
      <trkpt lat="44.77219" lon="5.91638">
        <ele>913</ele>
        <time>2018-06-06T11:10:47.000Z</time>
      </trkpt>
      <trkpt lat="44.77207" lon="5.91626">
        <ele>913.20001220703</ele>
        <time>2018-06-06T11:11:09.000Z</time>
      </trkpt>
      <trkpt lat="44.77198" lon="5.91618">
        <ele>913.40002441406</ele>
        <time>2018-06-06T11:11:26.000Z</time>
      </trkpt>
      <trkpt lat="44.77169" lon="5.91607">
        <ele>913</ele>
        <time>2018-06-06T11:11:55.000Z</time>
      </trkpt>
      <trkpt lat="44.77158" lon="5.91604">
        <ele>911</ele>
        <time>2018-06-06T11:12:26.000Z</time>
      </trkpt>
      <trkpt lat="44.77132" lon="5.91589">
        <ele>909</ele>
        <time>2018-06-06T11:12:54.000Z</time>
      </trkpt>
      <trkpt lat="44.77129" lon="5.91595">
        <ele>905.20001220703</ele>
        <time>2018-06-06T11:13:19.000Z</time>
      </trkpt>
      <trkpt lat="44.77126" lon="5.91593">
        <ele>904</ele>
        <time>2018-06-06T11:13:59.000Z</time>
      </trkpt>
      <trkpt lat="44.77133" lon="5.91598">
        <ele>902.79998779297</ele>
        <time>2018-06-06T11:14:35.000Z</time>
      </trkpt>
      <trkpt lat="44.77134" lon="5.91582">
        <ele>900.40002441406</ele>
        <time>2018-06-06T11:14:53.000Z</time>
      </trkpt>
      <trkpt lat="44.77138" lon="5.91567">
        <ele>896.79998779297</ele>
        <time>2018-06-06T11:15:22.000Z</time>
      </trkpt>
      <trkpt lat="44.77136" lon="5.91565">
        <ele>896.79998779297</ele>
        <time>2018-06-06T11:15:30.000Z</time>
      </trkpt>
      <trkpt lat="44.7713" lon="5.91542">
        <ele>895</ele>
        <time>2018-06-06T11:15:48.000Z</time>
      </trkpt>
      <trkpt lat="44.77129" lon="5.91525">
        <ele>895</ele>
        <time>2018-06-06T11:16:02.000Z</time>
      </trkpt>
      <trkpt lat="44.77129" lon="5.91515">
        <ele>890.79998779297</ele>
        <time>2018-06-06T11:16:27.000Z</time>
      </trkpt>
      <trkpt lat="44.77125" lon="5.91491">
        <ele>889.20001220703</ele>
        <time>2018-06-06T11:16:45.000Z</time>
      </trkpt>
      <trkpt lat="44.77124" lon="5.91455">
        <ele>889.20001220703</ele>
        <time>2018-06-06T11:17:14.000Z</time>
      </trkpt>
      <trkpt lat="44.7713" lon="5.91423">
        <ele>888.79998779297</ele>
        <time>2018-06-06T11:17:42.000Z</time>
      </trkpt>
      <trkpt lat="44.77132" lon="5.91402">
        <ele>887.59997558594</ele>
        <time>2018-06-06T11:17:59.000Z</time>
      </trkpt>
      <trkpt lat="44.77135" lon="5.91398">
        <ele>887.40002441406</ele>
        <time>2018-06-06T11:18:03.000Z</time>
      </trkpt>
      <trkpt lat="44.77137" lon="5.91366">
        <ele>886</ele>
        <time>2018-06-06T11:18:31.000Z</time>
      </trkpt>
      <trkpt lat="44.77135" lon="5.91319">
        <ele>884.59997558594</ele>
        <time>2018-06-06T11:18:56.000Z</time>
      </trkpt>
      <trkpt lat="44.7713" lon="5.91289">
        <ele>885.20001220703</ele>
        <time>2018-06-06T11:19:19.000Z</time>
      </trkpt>
      <trkpt lat="44.77125" lon="5.91268">
        <ele>884.59997558594</ele>
        <time>2018-06-06T11:19:32.000Z</time>
      </trkpt>
      <trkpt lat="44.77114" lon="5.9125">
        <ele>885.40002441406</ele>
        <time>2018-06-06T11:19:47.000Z</time>
      </trkpt>
      <trkpt lat="44.77104" lon="5.91237">
        <ele>884.20001220703</ele>
        <time>2018-06-06T11:20:00.000Z</time>
      </trkpt>
      <trkpt lat="44.77098" lon="5.9122">
        <ele>884.40002441406</ele>
        <time>2018-06-06T11:20:10.000Z</time>
      </trkpt>
      <trkpt lat="44.77093" lon="5.91207">
        <ele>883.59997558594</ele>
        <time>2018-06-06T11:20:20.000Z</time>
      </trkpt>
      <trkpt lat="44.77084" lon="5.91181">
        <ele>884.59997558594</ele>
        <time>2018-06-06T11:20:37.000Z</time>
      </trkpt>
      <trkpt lat="44.77084" lon="5.91178">
        <ele>884.79998779297</ele>
        <time>2018-06-06T11:20:41.000Z</time>
      </trkpt>
      <trkpt lat="44.77082" lon="5.91177">
        <ele>887.40002441406</ele>
        <time>2018-06-06T11:21:05.000Z</time>
      </trkpt>
      <trkpt lat="44.77078" lon="5.91175">
        <ele>889.40002441406</ele>
        <time>2018-06-06T11:21:18.000Z</time>
      </trkpt>
      <trkpt lat="44.77074" lon="5.91159">
        <ele>891.79998779297</ele>
        <time>2018-06-06T11:22:13.000Z</time>
      </trkpt>
      <trkpt lat="44.77071" lon="5.91126">
        <ele>891.20001220703</ele>
        <time>2018-06-06T11:22:38.000Z</time>
      </trkpt>
      <trkpt lat="44.77068" lon="5.91091">
        <ele>889.79998779297</ele>
        <time>2018-06-06T11:23:00.000Z</time>
      </trkpt>
      <trkpt lat="44.77068" lon="5.91064">
        <ele>889</ele>
        <time>2018-06-06T11:23:45.000Z</time>
      </trkpt>
      <trkpt lat="44.77072" lon="5.91039">
        <ele>889</ele>
        <time>2018-06-06T11:24:10.000Z</time>
      </trkpt>
      <trkpt lat="44.77085" lon="5.91021">
        <ele>886.40002441406</ele>
        <time>2018-06-06T11:24:34.000Z</time>
      </trkpt>
      <trkpt lat="44.77093" lon="5.91">
        <ele>885.20001220703</ele>
        <time>2018-06-06T11:24:52.000Z</time>
      </trkpt>
      <trkpt lat="44.77095" lon="5.90997">
        <ele>885</ele>
        <time>2018-06-06T11:24:55.000Z</time>
      </trkpt>
      <trkpt lat="44.77091" lon="5.90974">
        <ele>881.79998779297</ele>
        <time>2018-06-06T11:25:18.000Z</time>
      </trkpt>
      <trkpt lat="44.77075" lon="5.90933">
        <ele>878.59997558594</ele>
        <time>2018-06-06T11:25:46.000Z</time>
      </trkpt>
      <trkpt lat="44.77074" lon="5.90901">
        <ele>876.59997558594</ele>
        <time>2018-06-06T11:26:13.000Z</time>
      </trkpt>
      <trkpt lat="44.77073" lon="5.90864">
        <ele>874</ele>
        <time>2018-06-06T11:26:46.000Z</time>
      </trkpt>
      <trkpt lat="44.77069" lon="5.90849">
        <ele>873</ele>
        <time>2018-06-06T11:26:59.000Z</time>
      </trkpt>
      <trkpt lat="44.77053" lon="5.90815">
        <ele>869.79998779297</ele>
        <time>2018-06-06T11:27:27.000Z</time>
      </trkpt>
      <trkpt lat="44.77034" lon="5.90798">
        <ele>867.40002441406</ele>
        <time>2018-06-06T11:27:48.000Z</time>
      </trkpt>
      <trkpt lat="44.77022" lon="5.90785">
        <ele>864.40002441406</ele>
        <time>2018-06-06T11:28:06.000Z</time>
      </trkpt>
      <trkpt lat="44.77009" lon="5.90761">
        <ele>861.59997558594</ele>
        <time>2018-06-06T11:28:30.000Z</time>
      </trkpt>
      <trkpt lat="44.7699" lon="5.90729">
        <ele>857.59997558594</ele>
        <time>2018-06-06T11:28:59.000Z</time>
      </trkpt>
      <trkpt lat="44.76973" lon="5.90719">
        <ele>856</ele>
        <time>2018-06-06T11:29:23.000Z</time>
      </trkpt>
      <trkpt lat="44.76971" lon="5.9072">
        <ele>855.59997558594</ele>
        <time>2018-06-06T11:29:26.000Z</time>
      </trkpt>
      <trkpt lat="44.76966" lon="5.90712">
        <ele>855.79998779297</ele>
        <time>2018-06-06T11:29:40.000Z</time>
      </trkpt>
      <trkpt lat="44.76979" lon="5.90688">
        <ele>854.20001220703</ele>
        <time>2018-06-06T11:30:06.000Z</time>
      </trkpt>
      <trkpt lat="44.76994" lon="5.90671">
        <ele>853.40002441406</ele>
        <time>2018-06-06T11:30:33.000Z</time>
      </trkpt>
      <trkpt lat="44.77005" lon="5.9065">
        <ele>851.79998779297</ele>
        <time>2018-06-06T11:30:57.000Z</time>
      </trkpt>
      <trkpt lat="44.7701" lon="5.90642">
        <ele>849.79998779297</ele>
        <time>2018-06-06T11:31:21.000Z</time>
      </trkpt>
      <trkpt lat="44.76994" lon="5.90618">
        <ele>846.59997558594</ele>
        <time>2018-06-06T11:31:50.000Z</time>
      </trkpt>
      <trkpt lat="44.76993" lon="5.90598">
        <ele>844.20001220703</ele>
        <time>2018-06-06T11:32:07.000Z</time>
      </trkpt>
      <trkpt lat="44.76984" lon="5.90566">
        <ele>839.40002441406</ele>
        <time>2018-06-06T11:32:35.000Z</time>
      </trkpt>
      <trkpt lat="44.76983" lon="5.90552">
        <ele>837.20001220703</ele>
        <time>2018-06-06T11:32:48.000Z</time>
      </trkpt>
      <trkpt lat="44.76966" lon="5.90519">
        <ele>832.40002441406</ele>
        <time>2018-06-06T11:33:21.000Z</time>
      </trkpt>
      <trkpt lat="44.76959" lon="5.90496">
        <ele>828.20001220703</ele>
        <time>2018-06-06T11:33:43.000Z</time>
      </trkpt>
      <trkpt lat="44.76944" lon="5.90458">
        <ele>823.20001220703</ele>
        <time>2018-06-06T11:34:14.000Z</time>
      </trkpt>
      <trkpt lat="44.76946" lon="5.90436">
        <ele>821</ele>
        <time>2018-06-06T11:34:35.000Z</time>
      </trkpt>
      <trkpt lat="44.76962" lon="5.90428">
        <ele>818.79998779297</ele>
        <time>2018-06-06T11:34:59.000Z</time>
      </trkpt>
      <trkpt lat="44.76959" lon="5.90425">
        <ele>815.20001220703</ele>
        <time>2018-06-06T11:35:15.000Z</time>
      </trkpt>
      <trkpt lat="44.76958" lon="5.90429">
        <ele>813.20001220703</ele>
        <time>2018-06-06T11:35:18.000Z</time>
      </trkpt>
      <trkpt lat="44.7696" lon="5.90427">
        <ele>811</ele>
        <time>2018-06-06T11:35:36.000Z</time>
      </trkpt>
      <trkpt lat="44.76959" lon="5.90432">
        <ele>809.79998779297</ele>
        <time>2018-06-06T11:36:13.000Z</time>
      </trkpt>
      <trkpt lat="44.76928" lon="5.90365">
        <ele>806.20001220703</ele>
        <time>2018-06-06T11:40:40.000Z</time>
      </trkpt>
      <trkpt lat="44.76918" lon="5.90334">
        <ele>805</ele>
        <time>2018-06-06T11:41:03.000Z</time>
      </trkpt>
      <trkpt lat="44.76914" lon="5.90315">
        <ele>805</ele>
        <time>2018-06-06T11:41:18.000Z</time>
      </trkpt>
      <trkpt lat="44.76911" lon="5.90302">
        <ele>804.40002441406</ele>
        <time>2018-06-06T11:41:31.000Z</time>
      </trkpt>
      <trkpt lat="44.76893" lon="5.9026">
        <ele>802</ele>
        <time>2018-06-06T11:42:02.000Z</time>
      </trkpt>
      <trkpt lat="44.7688" lon="5.90236">
        <ele>799</ele>
        <time>2018-06-06T11:42:22.000Z</time>
      </trkpt>
      <trkpt lat="44.76878" lon="5.90218">
        <ele>798.79998779297</ele>
        <time>2018-06-06T11:42:40.000Z</time>
      </trkpt>
      <trkpt lat="44.76874" lon="5.90216">
        <ele>798.40002441406</ele>
        <time>2018-06-06T11:42:47.000Z</time>
      </trkpt>
      <trkpt lat="44.76862" lon="5.90207">
        <ele>797.59997558594</ele>
        <time>2018-06-06T11:43:02.000Z</time>
      </trkpt>
      <trkpt lat="44.76849" lon="5.90199">
        <ele>797.40002441406</ele>
        <time>2018-06-06T11:43:19.000Z</time>
      </trkpt>
      <trkpt lat="44.76845" lon="5.90199">
        <ele>797.20001220703</ele>
        <time>2018-06-06T11:43:28.000Z</time>
      </trkpt>
      <trkpt lat="44.76844" lon="5.90198">
        <ele>797.20001220703</ele>
        <time>2018-06-06T11:43:30.000Z</time>
      </trkpt>
      <trkpt lat="44.76832" lon="5.90187">
        <ele>797.20001220703</ele>
        <time>2018-06-06T11:43:45.000Z</time>
      </trkpt>
      <trkpt lat="44.76807" lon="5.90179">
        <ele>798.20001220703</ele>
        <time>2018-06-06T11:44:15.000Z</time>
      </trkpt>
      <trkpt lat="44.76801" lon="5.90179">
        <ele>798.79998779297</ele>
        <time>2018-06-06T11:44:26.000Z</time>
      </trkpt>
      <trkpt lat="44.76777" lon="5.9019">
        <ele>801.20001220703</ele>
        <time>2018-06-06T11:44:53.000Z</time>
      </trkpt>
      <trkpt lat="44.7677" lon="5.90201">
        <ele>803.20001220703</ele>
        <time>2018-06-06T11:45:09.000Z</time>
      </trkpt>
      <trkpt lat="44.7677" lon="5.90201">
        <ele>803.20001220703</ele>
        <time>2018-06-06T11:45:10.000Z</time>
      </trkpt>
      <trkpt lat="44.7676" lon="5.90205">
        <ele>805</ele>
        <time>2018-06-06T11:45:26.000Z</time>
      </trkpt>
      <trkpt lat="44.76754" lon="5.9022">
        <ele>806.79998779297</ele>
        <time>2018-06-06T11:45:50.000Z</time>
      </trkpt>
      <trkpt lat="44.76752" lon="5.90229">
        <ele>807.20001220703</ele>
        <time>2018-06-06T11:46:01.000Z</time>
      </trkpt>
      <trkpt lat="44.76751" lon="5.90237">
        <ele>808.20001220703</ele>
        <time>2018-06-06T11:46:15.000Z</time>
      </trkpt>
      <trkpt lat="44.76753" lon="5.9024">
        <ele>808.59997558594</ele>
        <time>2018-06-06T11:46:20.000Z</time>
      </trkpt>
      <trkpt lat="44.76752" lon="5.90243">
        <ele>808.59997558594</ele>
        <time>2018-06-06T11:46:24.000Z</time>
      </trkpt>
      <trkpt lat="44.76744" lon="5.90249">
        <ele>809.20001220703</ele>
        <time>2018-06-06T11:46:37.000Z</time>
      </trkpt>
      <trkpt lat="44.76742" lon="5.90239">
        <ele>810.59997558594</ele>
        <time>2018-06-06T11:47:07.000Z</time>
      </trkpt>
      <trkpt lat="44.76746" lon="5.90233">
        <ele>812</ele>
        <time>2018-06-06T11:47:21.000Z</time>
      </trkpt>
      <trkpt lat="44.76747" lon="5.90226">
        <ele>812.59997558594</ele>
        <time>2018-06-06T11:47:31.000Z</time>
      </trkpt>
      <trkpt lat="44.76746" lon="5.90225">
        <ele>813</ele>
        <time>2018-06-06T11:47:33.000Z</time>
      </trkpt>
      <trkpt lat="44.76743" lon="5.90229">
        <ele>815</ele>
        <time>2018-06-06T11:47:44.000Z</time>
      </trkpt>
      <trkpt lat="44.76737" lon="5.90234">
        <ele>814.59997558594</ele>
        <time>2018-06-06T11:47:57.000Z</time>
      </trkpt>
      <trkpt lat="44.76749" lon="5.90223">
        <ele>816.40002441406</ele>
        <time>2018-06-06T11:48:22.000Z</time>
      </trkpt>
      <trkpt lat="44.76754" lon="5.90203">
        <ele>819.40002441406</ele>
        <time>2018-06-06T11:48:43.000Z</time>
      </trkpt>
      <trkpt lat="44.76756" lon="5.90196">
        <ele>822</ele>
        <time>2018-06-06T11:49:07.000Z</time>
      </trkpt>
      <trkpt lat="44.76756" lon="5.90197">
        <ele>822.20001220703</ele>
        <time>2018-06-06T11:49:08.000Z</time>
      </trkpt>
      <trkpt lat="44.76741" lon="5.90208">
        <ele>824.59997558594</ele>
        <time>2018-06-06T11:49:33.000Z</time>
      </trkpt>
      <trkpt lat="44.76747" lon="5.90202">
        <ele>827.40002441406</ele>
        <time>2018-06-06T11:49:49.000Z</time>
      </trkpt>
      <trkpt lat="44.76738" lon="5.902">
        <ele>830.59997558594</ele>
        <time>2018-06-06T11:50:27.000Z</time>
      </trkpt>
      <trkpt lat="44.7675" lon="5.90181">
        <ele>834</ele>
        <time>2018-06-06T11:51:03.000Z</time>
      </trkpt>
      <trkpt lat="44.76757" lon="5.90171">
        <ele>837</ele>
        <time>2018-06-06T11:51:26.000Z</time>
      </trkpt>
      <trkpt lat="44.76765" lon="5.90148">
        <ele>837.79998779297</ele>
        <time>2018-06-06T11:51:55.000Z</time>
      </trkpt>
      <trkpt lat="44.76767" lon="5.90134">
        <ele>838.59997558594</ele>
        <time>2018-06-06T11:52:12.000Z</time>
      </trkpt>
      <trkpt lat="44.76761" lon="5.90135">
        <ele>848.40002441406</ele>
        <time>2018-06-06T11:52:51.000Z</time>
      </trkpt>
      <trkpt lat="44.7676" lon="5.90137">
        <ele>849.79998779297</ele>
        <time>2018-06-06T11:52:59.000Z</time>
      </trkpt>
      <trkpt lat="44.76764" lon="5.90098">
        <ele>853.59997558594</ele>
        <time>2018-06-06T11:54:04.000Z</time>
      </trkpt>
      <trkpt lat="44.76761" lon="5.9009">
        <ele>853.40002441406</ele>
        <time>2018-06-06T11:54:10.000Z</time>
      </trkpt>
      <trkpt lat="44.76759" lon="5.90087">
        <ele>853.20001220703</ele>
        <time>2018-06-06T11:54:12.000Z</time>
      </trkpt>
      <trkpt lat="44.76757" lon="5.90079">
        <ele>852.79998779297</ele>
        <time>2018-06-06T11:54:17.000Z</time>
      </trkpt>
      <trkpt lat="44.76751" lon="5.90064">
        <ele>852.40002441406</ele>
        <time>2018-06-06T11:54:28.000Z</time>
      </trkpt>
      <trkpt lat="44.76746" lon="5.90055">
        <ele>852.20001220703</ele>
        <time>2018-06-06T11:54:37.000Z</time>
      </trkpt>
      <trkpt lat="44.76741" lon="5.90046">
        <ele>852</ele>
        <time>2018-06-06T11:54:43.000Z</time>
      </trkpt>
      <trkpt lat="44.76747" lon="5.90031">
        <ele>852.79998779297</ele>
        <time>2018-06-06T11:54:53.000Z</time>
      </trkpt>
      <trkpt lat="44.76733" lon="5.90067">
        <ele>852.40002441406</ele>
        <time>2018-06-06T11:55:22.000Z</time>
      </trkpt>
      <trkpt lat="44.76724" lon="5.90083">
        <ele>852.59997558594</ele>
        <time>2018-06-06T11:55:39.000Z</time>
      </trkpt>
      <trkpt lat="44.76703" lon="5.90107">
        <ele>853.40002441406</ele>
        <time>2018-06-06T11:56:06.000Z</time>
      </trkpt>
      <trkpt lat="44.76699" lon="5.9012">
        <ele>853.40002441406</ele>
        <time>2018-06-06T11:56:21.000Z</time>
      </trkpt>
      <trkpt lat="44.76697" lon="5.90124">
        <ele>853.40002441406</ele>
        <time>2018-06-06T11:56:24.000Z</time>
      </trkpt>
      <trkpt lat="44.76708" lon="5.90126">
        <ele>853</ele>
        <time>2018-06-06T11:57:04.000Z</time>
      </trkpt>
      <trkpt lat="44.76706" lon="5.9013">
        <ele>853.20001220703</ele>
        <time>2018-06-06T11:57:16.000Z</time>
      </trkpt>
      <trkpt lat="44.76706" lon="5.90132">
        <ele>853.40002441406</ele>
        <time>2018-06-06T11:57:35.000Z</time>
      </trkpt>
      <trkpt lat="44.76709" lon="5.90146">
        <ele>852.20001220703</ele>
        <time>2018-06-06T11:57:54.000Z</time>
      </trkpt>
      <trkpt lat="44.76705" lon="5.90136">
        <ele>852.40002441406</ele>
        <time>2018-06-06T11:58:18.000Z</time>
      </trkpt>
      <trkpt lat="44.76701" lon="5.90133">
        <ele>852.59997558594</ele>
        <time>2018-06-06T11:58:23.000Z</time>
      </trkpt>
      <trkpt lat="44.76703" lon="5.90126">
        <ele>852.59997558594</ele>
        <time>2018-06-06T11:58:35.000Z</time>
      </trkpt>
      <trkpt lat="44.76703" lon="5.90118">
        <ele>853.40002441406</ele>
        <time>2018-06-06T11:58:44.000Z</time>
      </trkpt>
      <trkpt lat="44.76709" lon="5.9011">
        <ele>853.79998779297</ele>
        <time>2018-06-06T11:58:54.000Z</time>
      </trkpt>
      <trkpt lat="44.76714" lon="5.901">
        <ele>853.79998779297</ele>
        <time>2018-06-06T11:59:09.000Z</time>
      </trkpt>
      <trkpt lat="44.76716" lon="5.90096">
        <ele>854.20001220703</ele>
        <time>2018-06-06T11:59:15.000Z</time>
      </trkpt>
      <trkpt lat="44.76721" lon="5.90094">
        <ele>856.20001220703</ele>
        <time>2018-06-06T11:59:37.000Z</time>
      </trkpt>
      <trkpt lat="44.76707" lon="5.90086">
        <ele>857.20001220703</ele>
        <time>2018-06-06T11:59:47.000Z</time>
      </trkpt>
      <trkpt lat="44.76698" lon="5.90077">
        <ele>857.40002441406</ele>
        <time>2018-06-06T11:59:57.000Z</time>
      </trkpt>
      <trkpt lat="44.76687" lon="5.90078">
        <ele>851.79998779297</ele>
        <time>2018-06-06T12:00:30.000Z</time>
      </trkpt>
      <trkpt lat="44.76685" lon="5.90075">
        <ele>851.40002441406</ele>
        <time>2018-06-06T12:00:33.000Z</time>
      </trkpt>
      <trkpt lat="44.76676" lon="5.90055">
        <ele>850.20001220703</ele>
        <time>2018-06-06T12:00:48.000Z</time>
      </trkpt>
      <trkpt lat="44.76671" lon="5.9005">
        <ele>849.79998779297</ele>
        <time>2018-06-06T12:00:56.000Z</time>
      </trkpt>
      <trkpt lat="44.76668" lon="5.90045">
        <ele>849.59997558594</ele>
        <time>2018-06-06T12:01:00.000Z</time>
      </trkpt>
      <trkpt lat="44.76666" lon="5.90042">
        <ele>849.59997558594</ele>
        <time>2018-06-06T12:01:02.000Z</time>
      </trkpt>
      <trkpt lat="44.76654" lon="5.90029">
        <ele>849.20001220703</ele>
        <time>2018-06-06T12:01:19.000Z</time>
      </trkpt>
      <trkpt lat="44.76636" lon="5.90005">
        <ele>849.40002441406</ele>
        <time>2018-06-06T12:01:46.000Z</time>
      </trkpt>
      <trkpt lat="44.76634" lon="5.90001">
        <ele>849.59997558594</ele>
        <time>2018-06-06T12:01:50.000Z</time>
      </trkpt>
      <trkpt lat="44.76627" lon="5.9">
        <ele>848.79998779297</ele>
        <time>2018-06-06T12:02:03.000Z</time>
      </trkpt>
      <trkpt lat="44.76616" lon="5.89966">
        <ele>849.20001220703</ele>
        <time>2018-06-06T12:02:32.000Z</time>
      </trkpt>
      <trkpt lat="44.76615" lon="5.89963">
        <ele>849.20001220703</ele>
        <time>2018-06-06T12:02:34.000Z</time>
      </trkpt>
      <trkpt lat="44.76611" lon="5.89955">
        <ele>849.59997558594</ele>
        <time>2018-06-06T12:02:42.000Z</time>
      </trkpt>
      <trkpt lat="44.76609" lon="5.89951">
        <ele>850</ele>
        <time>2018-06-06T12:02:46.000Z</time>
      </trkpt>
      <trkpt lat="44.76603" lon="5.89941">
        <ele>850</ele>
        <time>2018-06-06T12:02:55.000Z</time>
      </trkpt>
      <trkpt lat="44.76593" lon="5.89924">
        <ele>849.59997558594</ele>
        <time>2018-06-06T12:03:12.000Z</time>
      </trkpt>
      <trkpt lat="44.76583" lon="5.89899">
        <ele>850</ele>
        <time>2018-06-06T12:03:33.000Z</time>
      </trkpt>
      <trkpt lat="44.7658" lon="5.89887">
        <ele>849.79998779297</ele>
        <time>2018-06-06T12:03:47.000Z</time>
      </trkpt>
      <trkpt lat="44.76578" lon="5.8988">
        <ele>850.20001220703</ele>
        <time>2018-06-06T12:03:53.000Z</time>
      </trkpt>
      <trkpt lat="44.76573" lon="5.89873">
        <ele>849.79998779297</ele>
        <time>2018-06-06T12:04:01.000Z</time>
      </trkpt>
      <trkpt lat="44.76555" lon="5.89838">
        <ele>849.40002441406</ele>
        <time>2018-06-06T12:04:26.000Z</time>
      </trkpt>
      <trkpt lat="44.76543" lon="5.89814">
        <ele>849</ele>
        <time>2018-06-06T12:04:52.000Z</time>
      </trkpt>
      <trkpt lat="44.76525" lon="5.89782">
        <ele>849.79998779297</ele>
        <time>2018-06-06T12:05:21.000Z</time>
      </trkpt>
      <trkpt lat="44.76508" lon="5.89758">
        <ele>849.40002441406</ele>
        <time>2018-06-06T12:05:49.000Z</time>
      </trkpt>
      <trkpt lat="44.76504" lon="5.89744">
        <ele>847.40002441406</ele>
        <time>2018-06-06T12:06:09.000Z</time>
      </trkpt>
      <trkpt lat="44.76483" lon="5.89708">
        <ele>847.20001220703</ele>
        <time>2018-06-06T12:06:41.000Z</time>
      </trkpt>
      <trkpt lat="44.76467" lon="5.89683">
        <ele>848.40002441406</ele>
        <time>2018-06-06T12:07:10.000Z</time>
      </trkpt>
      <trkpt lat="44.76465" lon="5.89681">
        <ele>848.40002441406</ele>
        <time>2018-06-06T12:07:13.000Z</time>
      </trkpt>
      <trkpt lat="44.76458" lon="5.89669">
        <ele>849.20001220703</ele>
        <time>2018-06-06T12:07:25.000Z</time>
      </trkpt>
      <trkpt lat="44.76447" lon="5.89665">
        <ele>850.20001220703</ele>
        <time>2018-06-06T12:07:42.000Z</time>
      </trkpt>
      <trkpt lat="44.76435" lon="5.89661">
        <ele>851.40002441406</ele>
        <time>2018-06-06T12:07:55.000Z</time>
      </trkpt>
      <trkpt lat="44.76431" lon="5.89662">
        <ele>851.59997558594</ele>
        <time>2018-06-06T12:07:58.000Z</time>
      </trkpt>
      <trkpt lat="44.7643" lon="5.89662">
        <ele>852</ele>
        <time>2018-06-06T12:08:00.000Z</time>
      </trkpt>
      <trkpt lat="44.76399" lon="5.89632">
        <ele>856.59997558594</ele>
        <time>2018-06-06T12:08:34.000Z</time>
      </trkpt>
      <trkpt lat="44.76393" lon="5.89619">
        <ele>858.20001220703</ele>
        <time>2018-06-06T12:08:47.000Z</time>
      </trkpt>
      <trkpt lat="44.76377" lon="5.89586">
        <ele>862.20001220703</ele>
        <time>2018-06-06T12:09:15.000Z</time>
      </trkpt>
      <trkpt lat="44.76374" lon="5.89578">
        <ele>863.59997558594</ele>
        <time>2018-06-06T12:09:22.000Z</time>
      </trkpt>
      <trkpt lat="44.76359" lon="5.89562">
        <ele>867.20001220703</ele>
        <time>2018-06-06T12:09:42.000Z</time>
      </trkpt>
      <trkpt lat="44.76339" lon="5.89559">
        <ele>871.20001220703</ele>
        <time>2018-06-06T12:10:04.000Z</time>
      </trkpt>
      <trkpt lat="44.76339" lon="5.89558">
        <ele>871.59997558594</ele>
        <time>2018-06-06T12:10:05.000Z</time>
      </trkpt>
      <trkpt lat="44.76325" lon="5.89547">
        <ele>876</ele>
        <time>2018-06-06T12:10:26.000Z</time>
      </trkpt>
      <trkpt lat="44.76311" lon="5.89534">
        <ele>879.40002441406</ele>
        <time>2018-06-06T12:10:46.000Z</time>
      </trkpt>
      <trkpt lat="44.76297" lon="5.89524">
        <ele>882.59997558594</ele>
        <time>2018-06-06T12:11:07.000Z</time>
      </trkpt>
      <trkpt lat="44.76296" lon="5.89521">
        <ele>883.40002441406</ele>
        <time>2018-06-06T12:11:11.000Z</time>
      </trkpt>
      <trkpt lat="44.76287" lon="5.89485">
        <ele>886.59997558594</ele>
        <time>2018-06-06T12:11:39.000Z</time>
      </trkpt>
      <trkpt lat="44.76286" lon="5.89484">
        <ele>887</ele>
        <time>2018-06-06T12:11:41.000Z</time>
      </trkpt>
      <trkpt lat="44.76282" lon="5.89479">
        <ele>887.40002441406</ele>
        <time>2018-06-06T12:11:45.000Z</time>
      </trkpt>
      <trkpt lat="44.7627" lon="5.89444">
        <ele>890.40002441406</ele>
        <time>2018-06-06T12:12:05.000Z</time>
      </trkpt>
      <trkpt lat="44.7626" lon="5.89437">
        <ele>892.20001220703</ele>
        <time>2018-06-06T12:12:25.000Z</time>
      </trkpt>
      <trkpt lat="44.76256" lon="5.89428">
        <ele>890.79998779297</ele>
        <time>2018-06-06T12:12:32.000Z</time>
      </trkpt>
      <trkpt lat="44.76262" lon="5.89432">
        <ele>883.59997558594</ele>
        <time>2018-06-06T12:12:57.000Z</time>
      </trkpt>
      <trkpt lat="44.76258" lon="5.89426">
        <ele>879.40002441406</ele>
        <time>2018-06-06T12:13:08.000Z</time>
      </trkpt>
      <trkpt lat="44.76254" lon="5.89434">
        <ele>876.59997558594</ele>
        <time>2018-06-06T12:13:21.000Z</time>
      </trkpt>
      <trkpt lat="44.76251" lon="5.89431">
        <ele>876</ele>
        <time>2018-06-06T12:13:24.000Z</time>
      </trkpt>
      <trkpt lat="44.76247" lon="5.89422">
        <ele>875.40002441406</ele>
        <time>2018-06-06T12:13:34.000Z</time>
      </trkpt>
      <trkpt lat="44.76252" lon="5.89438">
        <ele>868.20001220703</ele>
        <time>2018-06-06T12:14:11.000Z</time>
      </trkpt>
      <trkpt lat="44.76257" lon="5.89427">
        <ele>865.59997558594</ele>
        <time>2018-06-06T12:14:24.000Z</time>
      </trkpt>
      <trkpt lat="44.76254" lon="5.8943">
        <ele>865</ele>
        <time>2018-06-06T12:14:30.000Z</time>
      </trkpt>
      <trkpt lat="44.76248" lon="5.8943">
        <ele>866.40002441406</ele>
        <time>2018-06-06T12:15:14.000Z</time>
      </trkpt>
      <trkpt lat="44.76243" lon="5.89427">
        <ele>865.79998779297</ele>
        <time>2018-06-06T12:15:32.000Z</time>
      </trkpt>
      <trkpt lat="44.76228" lon="5.8943">
        <ele>866.20001220703</ele>
        <time>2018-06-06T12:16:07.000Z</time>
      </trkpt>
      <trkpt lat="44.76243" lon="5.89434">
        <ele>866</ele>
        <time>2018-06-06T12:16:20.000Z</time>
      </trkpt>
      <trkpt lat="44.76259" lon="5.89422">
        <ele>864.79998779297</ele>
        <time>2018-06-06T12:16:43.000Z</time>
      </trkpt>
      <trkpt lat="44.76259" lon="5.89411">
        <ele>865</ele>
        <time>2018-06-06T12:16:50.000Z</time>
      </trkpt>
      <trkpt lat="44.76254" lon="5.89404">
        <ele>864.79998779297</ele>
        <time>2018-06-06T12:16:57.000Z</time>
      </trkpt>
      <trkpt lat="44.76253" lon="5.89401">
        <ele>864.59997558594</ele>
        <time>2018-06-06T12:17:00.000Z</time>
      </trkpt>
      <trkpt lat="44.76252" lon="5.89396">
        <ele>864.40002441406</ele>
        <time>2018-06-06T12:17:06.000Z</time>
      </trkpt>
      <trkpt lat="44.7625" lon="5.89381">
        <ele>864.59997558594</ele>
        <time>2018-06-06T12:17:18.000Z</time>
      </trkpt>
      <trkpt lat="44.7624" lon="5.89338">
        <ele>865.20001220703</ele>
        <time>2018-06-06T12:17:43.000Z</time>
      </trkpt>
      <trkpt lat="44.76233" lon="5.89313">
        <ele>867.20001220703</ele>
        <time>2018-06-06T12:18:05.000Z</time>
      </trkpt>
      <trkpt lat="44.76223" lon="5.89292">
        <ele>868</ele>
        <time>2018-06-06T12:18:28.000Z</time>
      </trkpt>
      <trkpt lat="44.7622" lon="5.89288">
        <ele>867.79998779297</ele>
        <time>2018-06-06T12:18:31.000Z</time>
      </trkpt>
      <trkpt lat="44.76218" lon="5.8928">
        <ele>867.79998779297</ele>
        <time>2018-06-06T12:18:40.000Z</time>
      </trkpt>
      <trkpt lat="44.76216" lon="5.89276">
        <ele>867.79998779297</ele>
        <time>2018-06-06T12:18:44.000Z</time>
      </trkpt>
      <trkpt lat="44.76213" lon="5.89245">
        <ele>868</ele>
        <time>2018-06-06T12:19:11.000Z</time>
      </trkpt>
      <trkpt lat="44.76205" lon="5.89216">
        <ele>867.20001220703</ele>
        <time>2018-06-06T12:19:40.000Z</time>
      </trkpt>
      <trkpt lat="44.76194" lon="5.89186">
        <ele>866.59997558594</ele>
        <time>2018-06-06T12:20:04.000Z</time>
      </trkpt>
      <trkpt lat="44.76191" lon="5.89183">
        <ele>866.40002441406</ele>
        <time>2018-06-06T12:20:09.000Z</time>
      </trkpt>
      <trkpt lat="44.76184" lon="5.89178">
        <ele>866.59997558594</ele>
        <time>2018-06-06T12:20:23.000Z</time>
      </trkpt>
      <trkpt lat="44.7618" lon="5.8918">
        <ele>866.79998779297</ele>
        <time>2018-06-06T12:20:29.000Z</time>
      </trkpt>
      <trkpt lat="44.76156" lon="5.89163">
        <ele>867</ele>
        <time>2018-06-06T12:20:56.000Z</time>
      </trkpt>
      <trkpt lat="44.76146" lon="5.89157">
        <ele>867.20001220703</ele>
        <time>2018-06-06T12:21:09.000Z</time>
      </trkpt>
      <trkpt lat="44.76143" lon="5.89155">
        <ele>867.20001220703</ele>
        <time>2018-06-06T12:21:14.000Z</time>
      </trkpt>
      <trkpt lat="44.7614" lon="5.89151">
        <ele>867</ele>
        <time>2018-06-06T12:21:18.000Z</time>
      </trkpt>
      <trkpt lat="44.76131" lon="5.8914">
        <ele>867.59997558594</ele>
        <time>2018-06-06T12:21:34.000Z</time>
      </trkpt>
      <trkpt lat="44.76125" lon="5.89128">
        <ele>867.59997558594</ele>
        <time>2018-06-06T12:21:42.000Z</time>
      </trkpt>
      <trkpt lat="44.76121" lon="5.89119">
        <ele>868.40002441406</ele>
        <time>2018-06-06T12:21:52.000Z</time>
      </trkpt>
      <trkpt lat="44.76119" lon="5.89109">
        <ele>867.79998779297</ele>
        <time>2018-06-06T12:22:00.000Z</time>
      </trkpt>
      <trkpt lat="44.76125" lon="5.89098">
        <ele>870.59997558594</ele>
        <time>2018-06-06T12:22:18.000Z</time>
      </trkpt>
      <trkpt lat="44.76123" lon="5.89094">
        <ele>870.59997558594</ele>
        <time>2018-06-06T12:22:34.000Z</time>
      </trkpt>
      <trkpt lat="44.76126" lon="5.8909">
        <ele>868.79998779297</ele>
        <time>2018-06-06T12:23:01.000Z</time>
      </trkpt>
      <trkpt lat="44.76111" lon="5.89086">
        <ele>868.79998779297</ele>
        <time>2018-06-06T12:23:50.000Z</time>
      </trkpt>
      <trkpt lat="44.76109" lon="5.89087">
        <ele>869</ele>
        <time>2018-06-06T12:23:54.000Z</time>
      </trkpt>
      <trkpt lat="44.76106" lon="5.89081">
        <ele>869</ele>
        <time>2018-06-06T12:24:32.000Z</time>
      </trkpt>
      <trkpt lat="44.76106" lon="5.89081">
        <ele>869</ele>
        <time>2018-06-06T12:24:33.000Z</time>
      </trkpt>
      <trkpt lat="44.76104" lon="5.89076">
        <ele>869.20001220703</ele>
        <time>2018-06-06T12:24:42.000Z</time>
      </trkpt>
      <trkpt lat="44.76098" lon="5.89071">
        <ele>869</ele>
        <time>2018-06-06T12:24:54.000Z</time>
      </trkpt>
      <trkpt lat="44.76099" lon="5.89065">
        <ele>868.59997558594</ele>
        <time>2018-06-06T12:25:03.000Z</time>
      </trkpt>
      <trkpt lat="44.76101" lon="5.89066">
        <ele>867.59997558594</ele>
        <time>2018-06-06T12:25:10.000Z</time>
      </trkpt>
      <trkpt lat="44.761" lon="5.89063">
        <ele>868</ele>
        <time>2018-06-06T12:25:20.000Z</time>
      </trkpt>
      <trkpt lat="44.76077" lon="5.89051">
        <ele>866.59997558594</ele>
        <time>2018-06-06T12:25:47.000Z</time>
      </trkpt>
      <trkpt lat="44.76075" lon="5.8905">
        <ele>866.40002441406</ele>
        <time>2018-06-06T12:25:49.000Z</time>
      </trkpt>
      <trkpt lat="44.76075" lon="5.89025">
        <ele>863.79998779297</ele>
        <time>2018-06-06T12:26:14.000Z</time>
      </trkpt>
      <trkpt lat="44.76071" lon="5.89014">
        <ele>862</ele>
        <time>2018-06-06T12:26:28.000Z</time>
      </trkpt>
      <trkpt lat="44.76074" lon="5.8901">
        <ele>858</ele>
        <time>2018-06-06T12:26:44.000Z</time>
      </trkpt>
      <trkpt lat="44.76078" lon="5.88994">
        <ele>853</ele>
        <time>2018-06-06T12:27:15.000Z</time>
      </trkpt>
      <trkpt lat="44.7608" lon="5.88993">
        <ele>853.20001220703</ele>
        <time>2018-06-06T12:27:20.000Z</time>
      </trkpt>
      <trkpt lat="44.76083" lon="5.88992">
        <ele>853.20001220703</ele>
        <time>2018-06-06T12:27:23.000Z</time>
      </trkpt>
      <trkpt lat="44.76088" lon="5.88987">
        <ele>853</ele>
        <time>2018-06-06T12:27:30.000Z</time>
      </trkpt>
      <trkpt lat="44.76086" lon="5.88981">
        <ele>852.79998779297</ele>
        <time>2018-06-06T12:27:53.000Z</time>
      </trkpt>
      <trkpt lat="44.76083" lon="5.88984">
        <ele>853</ele>
        <time>2018-06-06T12:28:07.000Z</time>
      </trkpt>
      <trkpt lat="44.76071" lon="5.89005">
        <ele>853.79998779297</ele>
        <time>2018-06-06T12:28:42.000Z</time>
      </trkpt>
      <trkpt lat="44.76065" lon="5.8901">
        <ele>853.40002441406</ele>
        <time>2018-06-06T12:28:50.000Z</time>
      </trkpt>
      <trkpt lat="44.76057" lon="5.89017">
        <ele>853.40002441406</ele>
        <time>2018-06-06T12:28:58.000Z</time>
      </trkpt>
      <trkpt lat="44.76053" lon="5.89018">
        <ele>853.59997558594</ele>
        <time>2018-06-06T12:29:06.000Z</time>
      </trkpt>
      <trkpt lat="44.76052" lon="5.89017">
        <ele>854</ele>
        <time>2018-06-06T12:29:15.000Z</time>
      </trkpt>
      <trkpt lat="44.76056" lon="5.89009">
        <ele>854</ele>
        <time>2018-06-06T12:29:19.000Z</time>
      </trkpt>
      <trkpt lat="44.76069" lon="5.88982">
        <ele>854.20001220703</ele>
        <time>2018-06-06T12:29:37.000Z</time>
      </trkpt>
      <trkpt lat="44.76073" lon="5.88978">
        <ele>854.20001220703</ele>
        <time>2018-06-06T12:29:44.000Z</time>
      </trkpt>
      <trkpt lat="44.76074" lon="5.88975">
        <ele>854.20001220703</ele>
        <time>2018-06-06T12:29:47.000Z</time>
      </trkpt>
      <trkpt lat="44.76071" lon="5.88959">
        <ele>854.40002441406</ele>
        <time>2018-06-06T12:30:00.000Z</time>
      </trkpt>
      <trkpt lat="44.7607" lon="5.88946">
        <ele>854.40002441406</ele>
        <time>2018-06-06T12:30:08.000Z</time>
      </trkpt>
      <trkpt lat="44.76067" lon="5.88941">
        <ele>854.59997558594</ele>
        <time>2018-06-06T12:30:14.000Z</time>
      </trkpt>
      <trkpt lat="44.7606" lon="5.88926">
        <ele>855</ele>
        <time>2018-06-06T12:30:32.000Z</time>
      </trkpt>
      <trkpt lat="44.76058" lon="5.88919">
        <ele>855.40002441406</ele>
        <time>2018-06-06T12:30:42.000Z</time>
      </trkpt>
      <trkpt lat="44.7605" lon="5.889">
        <ele>855.79998779297</ele>
        <time>2018-06-06T12:30:57.000Z</time>
      </trkpt>
      <trkpt lat="44.76048" lon="5.88897">
        <ele>856</ele>
        <time>2018-06-06T12:31:01.000Z</time>
      </trkpt>
      <trkpt lat="44.76042" lon="5.88884">
        <ele>856.59997558594</ele>
        <time>2018-06-06T12:31:13.000Z</time>
      </trkpt>
      <trkpt lat="44.76042" lon="5.88882">
        <ele>856.59997558594</ele>
        <time>2018-06-06T12:31:15.000Z</time>
      </trkpt>
      <trkpt lat="44.76041" lon="5.88878">
        <ele>856.79998779297</ele>
        <time>2018-06-06T12:31:17.000Z</time>
      </trkpt>
      <trkpt lat="44.76042" lon="5.88871">
        <ele>857</ele>
        <time>2018-06-06T12:31:22.000Z</time>
      </trkpt>
      <trkpt lat="44.76039" lon="5.88864">
        <ele>857.20001220703</ele>
        <time>2018-06-06T12:31:29.000Z</time>
      </trkpt>
      <trkpt lat="44.76033" lon="5.88837">
        <ele>858</ele>
        <time>2018-06-06T12:31:50.000Z</time>
      </trkpt>
      <trkpt lat="44.76033" lon="5.88807">
        <ele>859</ele>
        <time>2018-06-06T12:32:05.000Z</time>
      </trkpt>
      <trkpt lat="44.7603" lon="5.88797">
        <ele>859.40002441406</ele>
        <time>2018-06-06T12:32:10.000Z</time>
      </trkpt>
      <trkpt lat="44.76017" lon="5.88786">
        <ele>860.40002441406</ele>
        <time>2018-06-06T12:32:25.000Z</time>
      </trkpt>
      <trkpt lat="44.76011" lon="5.88767">
        <ele>861.79998779297</ele>
        <time>2018-06-06T12:32:45.000Z</time>
      </trkpt>
      <trkpt lat="44.76005" lon="5.88733">
        <ele>863.40002441406</ele>
        <time>2018-06-06T12:33:03.000Z</time>
      </trkpt>
      <trkpt lat="44.76" lon="5.88712">
        <ele>864.79998779297</ele>
        <time>2018-06-06T12:33:20.000Z</time>
      </trkpt>
      <trkpt lat="44.75999" lon="5.88709">
        <ele>865</ele>
        <time>2018-06-06T12:33:22.000Z</time>
      </trkpt>
      <trkpt lat="44.75998" lon="5.88704">
        <ele>865.40002441406</ele>
        <time>2018-06-06T12:33:27.000Z</time>
      </trkpt>
      <trkpt lat="44.75998" lon="5.88699">
        <ele>865.59997558594</ele>
        <time>2018-06-06T12:33:30.000Z</time>
      </trkpt>
      <trkpt lat="44.75996" lon="5.88686">
        <ele>866.79998779297</ele>
        <time>2018-06-06T12:33:42.000Z</time>
      </trkpt>
      <trkpt lat="44.75996" lon="5.88685">
        <ele>867</ele>
        <time>2018-06-06T12:33:43.000Z</time>
      </trkpt>
      <trkpt lat="44.75993" lon="5.88676">
        <ele>867.59997558594</ele>
        <time>2018-06-06T12:33:49.000Z</time>
      </trkpt>
      <trkpt lat="44.75993" lon="5.88673">
        <ele>867.79998779297</ele>
        <time>2018-06-06T12:33:51.000Z</time>
      </trkpt>
      <trkpt lat="44.7599" lon="5.88669">
        <ele>868.59997558594</ele>
        <time>2018-06-06T12:33:58.000Z</time>
      </trkpt>
      <trkpt lat="44.75993" lon="5.88646">
        <ele>870.20001220703</ele>
        <time>2018-06-06T12:34:18.000Z</time>
      </trkpt>
      <trkpt lat="44.75994" lon="5.88644">
        <ele>870.40002441406</ele>
        <time>2018-06-06T12:34:20.000Z</time>
      </trkpt>
      <trkpt lat="44.75996" lon="5.88638">
        <ele>870.40002441406</ele>
        <time>2018-06-06T12:34:23.000Z</time>
      </trkpt>
      <trkpt lat="44.75988" lon="5.88629">
        <ele>871.79998779297</ele>
        <time>2018-06-06T12:34:36.000Z</time>
      </trkpt>
      <trkpt lat="44.75981" lon="5.88625">
        <ele>872.20001220703</ele>
        <time>2018-06-06T12:34:43.000Z</time>
      </trkpt>
      <trkpt lat="44.75973" lon="5.88613">
        <ele>873.20001220703</ele>
        <time>2018-06-06T12:34:54.000Z</time>
      </trkpt>
      <trkpt lat="44.75961" lon="5.88605">
        <ele>874.79998779297</ele>
        <time>2018-06-06T12:35:07.000Z</time>
      </trkpt>
      <trkpt lat="44.75922" lon="5.88633">
        <ele>875.79998779297</ele>
        <time>2018-06-06T12:35:21.000Z</time>
      </trkpt>
      <trkpt lat="44.75896" lon="5.88642">
        <ele>877.40002441406</ele>
        <time>2018-06-06T12:35:40.000Z</time>
      </trkpt>
      <trkpt lat="44.75893" lon="5.88639">
        <ele>877.79998779297</ele>
        <time>2018-06-06T12:35:44.000Z</time>
      </trkpt>
      <trkpt lat="44.75891" lon="5.88636">
        <ele>878</ele>
        <time>2018-06-06T12:35:47.000Z</time>
      </trkpt>
      <trkpt lat="44.75882" lon="5.88625">
        <ele>879.20001220703</ele>
        <time>2018-06-06T12:35:58.000Z</time>
      </trkpt>
      <trkpt lat="44.75869" lon="5.88614">
        <ele>880.59997558594</ele>
        <time>2018-06-06T12:36:12.000Z</time>
      </trkpt>
      <trkpt lat="44.75837" lon="5.88603">
        <ele>884.59997558594</ele>
        <time>2018-06-06T12:36:42.000Z</time>
      </trkpt>
      <trkpt lat="44.75827" lon="5.88595">
        <ele>887.20001220703</ele>
        <time>2018-06-06T12:37:02.000Z</time>
      </trkpt>
      <trkpt lat="44.75805" lon="5.88596">
        <ele>888</ele>
        <time>2018-06-06T12:37:22.000Z</time>
      </trkpt>
      <trkpt lat="44.7578" lon="5.88619">
        <ele>888.59997558594</ele>
        <time>2018-06-06T12:37:35.000Z</time>
      </trkpt>
      <trkpt lat="44.75767" lon="5.88614">
        <ele>888.59997558594</ele>
        <time>2018-06-06T12:37:45.000Z</time>
      </trkpt>
      <trkpt lat="44.75759" lon="5.88616">
        <ele>889</ele>
        <time>2018-06-06T12:37:58.000Z</time>
      </trkpt>
      <trkpt lat="44.75754" lon="5.8863">
        <ele>889.59997558594</ele>
        <time>2018-06-06T12:38:14.000Z</time>
      </trkpt>
      <trkpt lat="44.75747" lon="5.88652">
        <ele>890.20001220703</ele>
        <time>2018-06-06T12:38:31.000Z</time>
      </trkpt>
      <trkpt lat="44.75739" lon="5.88671">
        <ele>890.79998779297</ele>
        <time>2018-06-06T12:38:40.000Z</time>
      </trkpt>
      <trkpt lat="44.75734" lon="5.88688">
        <ele>891.40002441406</ele>
        <time>2018-06-06T12:39:02.000Z</time>
      </trkpt>
      <trkpt lat="44.75734" lon="5.8869">
        <ele>891</ele>
        <time>2018-06-06T12:39:04.000Z</time>
      </trkpt>
      <trkpt lat="44.75734" lon="5.88698">
        <ele>889.20001220703</ele>
        <time>2018-06-06T12:39:12.000Z</time>
      </trkpt>
      <trkpt lat="44.75724" lon="5.88712">
        <ele>889.79998779297</ele>
        <time>2018-06-06T12:39:31.000Z</time>
      </trkpt>
      <trkpt lat="44.75724" lon="5.88714">
        <ele>889.79998779297</ele>
        <time>2018-06-06T12:39:33.000Z</time>
      </trkpt>
      <trkpt lat="44.75714" lon="5.88724">
        <ele>891.20001220703</ele>
        <time>2018-06-06T12:39:46.000Z</time>
      </trkpt>
      <trkpt lat="44.7572" lon="5.88738">
        <ele>891.79998779297</ele>
        <time>2018-06-06T12:40:03.000Z</time>
      </trkpt>
      <trkpt lat="44.75722" lon="5.88743">
        <ele>892</ele>
        <time>2018-06-06T12:40:12.000Z</time>
      </trkpt>
      <trkpt lat="44.75727" lon="5.88736">
        <ele>895.59997558594</ele>
        <time>2018-06-06T12:40:33.000Z</time>
      </trkpt>
    </trkseg>
  </trk>
</gpx>